<?xml version="1.0" encoding="UTF-8" standalone="no" ?>
<gpx xmlns="http://www.topografix.com/GPX/1/1" xmlns:xsi="http://www.w3.org/2001/XMLSchema-instance" xsi:schemaLocation="http://www.topografix.com/GPX/1/1 http://www.topografix.com/GPX/1/1/gpx.xsd" version="1.1" creator="VisuGPX - https://www.visugpx.com">
  <metadata>
    <name>randonnée du 10 et 11 Aout 2019 1 nuit refuge juclar</name>
    <desc><![CDATA[[b][i][url][img][/img][/url][/i][/b]]]></desc>
  </metadata>
  <wpt lat="42.60736" lon="1.71579">
    <ele>2307.3</ele>
    <name><![CDATA[refuge juclar 1er jour]]></name>
    <type><![CDATA[hebergement]]></type>
  </wpt>
  <trk>
    <name><![CDATA[randonnée du 10 et 11 Aout 2019 1 nuit refuge juclar_1]]></name>
    <trkseg>
      <trkpt lat="42.64075" lon="1.70781">
        <ele>1852.1</ele>
        <time>2018-11-10T10:39:54Z</time>
      </trkpt>
      <trkpt lat="42.6409" lon="1.70867">
        <ele>1869.5</ele>
        <time>2018-11-10T10:40:08Z</time>
      </trkpt>
      <trkpt lat="42.64103" lon="1.70978">
        <ele>1883.6</ele>
        <time>2018-11-10T10:40:34Z</time>
      </trkpt>
      <trkpt lat="42.64138" lon="1.71056">
        <ele>1892.7</ele>
        <time>2018-11-10T10:43:46Z</time>
      </trkpt>
      <trkpt lat="42.64177" lon="1.71179">
        <ele>1911</ele>
        <time>2018-11-10T10:43:56Z</time>
      </trkpt>
      <trkpt lat="42.64214" lon="1.71232">
        <ele>1922.2</ele>
        <time>2018-11-10T10:44:08Z</time>
      </trkpt>
      <trkpt lat="42.64247" lon="1.71355">
        <ele>1949.9</ele>
        <time>2018-11-10T10:44:23Z</time>
      </trkpt>
      <trkpt lat="42.64245" lon="1.71403">
        <ele>1957.2</ele>
        <time>2018-11-10T10:44:34Z</time>
      </trkpt>
      <trkpt lat="42.64243" lon="1.71407">
        <ele>1958</ele>
        <time>2018-11-10T10:44:49Z</time>
      </trkpt>
      <trkpt lat="42.64234" lon="1.71495">
        <ele>1973.7</ele>
        <time>2018-11-10T10:45:19Z</time>
      </trkpt>
      <trkpt lat="42.64247" lon="1.71646">
        <ele>2005</ele>
        <time>2018-11-10T10:45:36Z</time>
      </trkpt>
      <trkpt lat="42.64237" lon="1.71678">
        <ele>2015.3</ele>
        <time>2018-11-10T10:46:00Z</time>
      </trkpt>
      <trkpt lat="42.64248" lon="1.71742">
        <ele>2030.2</ele>
        <time>2018-11-10T10:46:13Z</time>
      </trkpt>
      <trkpt lat="42.64233" lon="1.71814">
        <ele>2039.2</ele>
        <time>2018-11-10T10:46:49Z</time>
      </trkpt>
      <trkpt lat="42.64239" lon="1.71863">
        <ele>2054</ele>
        <time>2018-11-10T10:47:51Z</time>
      </trkpt>
      <trkpt lat="42.64232" lon="1.71913">
        <ele>2063.4</ele>
        <time>2018-11-10T10:48:01Z</time>
      </trkpt>
      <trkpt lat="42.64239" lon="1.71977">
        <ele>2083</ele>
        <time>2018-11-10T10:48:13Z</time>
      </trkpt>
      <trkpt lat="42.6423" lon="1.7204">
        <ele>2097.2</ele>
        <time>2018-11-10T10:48:28Z</time>
      </trkpt>
      <trkpt lat="42.64218" lon="1.72052">
        <ele>2096.7</ele>
        <time>2018-11-10T10:48:39Z</time>
      </trkpt>
      <trkpt lat="42.64217" lon="1.72098">
        <ele>2112.5</ele>
        <time>2018-11-10T10:48:50Z</time>
      </trkpt>
      <trkpt lat="42.64188" lon="1.72134">
        <ele>2113.1</ele>
        <time>2018-11-10T10:49:09Z</time>
      </trkpt>
      <trkpt lat="42.64159" lon="1.72253">
        <ele>2140.2</ele>
        <time>2018-11-10T10:50:51Z</time>
      </trkpt>
      <trkpt lat="42.6416" lon="1.72332">
        <ele>2151.5</ele>
        <time>2018-11-10T10:52:33Z</time>
      </trkpt>
      <trkpt lat="42.64149" lon="1.72339">
        <ele>2157.3</ele>
        <time>2018-11-10T10:52:46Z</time>
      </trkpt>
      <trkpt lat="42.64163" lon="1.72377">
        <ele>2161.9</ele>
        <time>2018-11-10T10:54:01Z</time>
      </trkpt>
      <trkpt lat="42.6416" lon="1.72405">
        <ele>2167.3</ele>
        <time>2018-11-10T10:55:47Z</time>
      </trkpt>
      <trkpt lat="42.64094" lon="1.72401">
        <ele>2164.6</ele>
        <time>2018-11-10T10:55:57Z</time>
      </trkpt>
      <trkpt lat="42.64026" lon="1.72436">
        <ele>2169.2</ele>
        <time>2018-11-10T10:56:08Z</time>
      </trkpt>
      <trkpt lat="42.63993" lon="1.72468">
        <ele>2163.9</ele>
        <time>2018-11-10T10:56:23Z</time>
      </trkpt>
      <trkpt lat="42.63942" lon="1.72562">
        <ele>2185.1</ele>
        <time>2018-11-10T10:58:44Z</time>
      </trkpt>
      <trkpt lat="42.63869" lon="1.72578">
        <ele>2179.2</ele>
        <time>2018-11-10T10:59:19Z</time>
      </trkpt>
      <trkpt lat="42.63825" lon="1.7262">
        <ele>2191.3</ele>
        <time>2018-11-10T11:00:57Z</time>
      </trkpt>
      <trkpt lat="42.63784" lon="1.72595">
        <ele>2189.4</ele>
        <time>2018-11-10T11:01:05Z</time>
      </trkpt>
      <trkpt lat="42.63789" lon="1.72582">
        <ele>2176.3</ele>
        <time>2018-11-10T11:01:34Z</time>
      </trkpt>
      <trkpt lat="42.63726" lon="1.72578">
        <ele>2171.4</ele>
        <time>2018-11-10T11:01:52Z</time>
      </trkpt>
      <trkpt lat="42.63666" lon="1.72586">
        <ele>2171.7</ele>
        <time>2018-11-10T11:01:58Z</time>
      </trkpt>
      <trkpt lat="42.63608" lon="1.72614">
        <ele>2166.5</ele>
        <time>2018-11-10T11:02:10Z</time>
      </trkpt>
      <trkpt lat="42.63598" lon="1.72635">
        <ele>2168.5</ele>
        <time>2018-11-10T11:02:24Z</time>
      </trkpt>
      <trkpt lat="42.63571" lon="1.72664">
        <ele>2163.4</ele>
        <time>2018-11-10T11:02:33Z</time>
      </trkpt>
      <trkpt lat="42.63545" lon="1.72649">
        <ele>2155.1</ele>
        <time>2018-11-10T11:02:49Z</time>
      </trkpt>
      <trkpt lat="42.63536" lon="1.72668">
        <ele>2169.6</ele>
        <time>2018-11-10T11:02:57Z</time>
      </trkpt>
      <trkpt lat="42.63459" lon="1.72655">
        <ele>2141.3</ele>
        <time>2018-11-10T11:03:13Z</time>
      </trkpt>
      <trkpt lat="42.63392" lon="1.72642">
        <ele>2130.3</ele>
        <time>2018-11-10T11:03:21Z</time>
      </trkpt>
      <trkpt lat="42.6337" lon="1.72635">
        <ele>2126</ele>
        <time>2018-11-10T11:03:52Z</time>
      </trkpt>
      <trkpt lat="42.63344" lon="1.72644">
        <ele>2130.5</ele>
        <time>2018-11-10T11:04:26Z</time>
      </trkpt>
      <trkpt lat="42.63322" lon="1.72644">
        <ele>2124.8</ele>
        <time>2018-11-10T11:04:39Z</time>
      </trkpt>
      <trkpt lat="42.6327" lon="1.72664">
        <ele>2123.2</ele>
        <time>2018-11-10T11:04:53Z</time>
      </trkpt>
      <trkpt lat="42.6322" lon="1.72674">
        <ele>2138.3</ele>
        <time>2018-11-10T11:05:14Z</time>
      </trkpt>
      <trkpt lat="42.63183" lon="1.72677">
        <ele>2133.3</ele>
        <time>2018-11-10T11:05:38Z</time>
      </trkpt>
      <trkpt lat="42.63131" lon="1.72676">
        <ele>2131</ele>
        <time>2018-11-10T11:06:16Z</time>
      </trkpt>
      <trkpt lat="42.6312" lon="1.72651">
        <ele>2113.8</ele>
        <time>2018-11-10T11:06:48Z</time>
      </trkpt>
      <trkpt lat="42.6311" lon="1.72651">
        <ele>2114.5</ele>
        <time>2018-11-10T11:06:55Z</time>
      </trkpt>
      <trkpt lat="42.63124" lon="1.72623">
        <ele>2109.8</ele>
        <time>2018-11-10T11:07:06Z</time>
      </trkpt>
      <trkpt lat="42.63125" lon="1.72606">
        <ele>2107.3</ele>
        <time>2018-11-10T11:07:24Z</time>
      </trkpt>
      <trkpt lat="42.63108" lon="1.72621">
        <ele>2109.8</ele>
        <time>2018-11-10T11:07:32Z</time>
      </trkpt>
      <trkpt lat="42.63106" lon="1.72595">
        <ele>2105.9</ele>
        <time>2018-11-10T11:07:48Z</time>
      </trkpt>
      <trkpt lat="42.63095" lon="1.72599">
        <ele>2105.5</ele>
        <time>2018-11-10T11:11:19Z</time>
      </trkpt>
      <trkpt lat="42.63073" lon="1.7259">
        <ele>2104.3</ele>
        <time>2018-11-10T11:12:17Z</time>
      </trkpt>
      <trkpt lat="42.63055" lon="1.7258">
        <ele>2099.2</ele>
        <time>2018-11-10T11:12:26Z</time>
      </trkpt>
      <trkpt lat="42.63043" lon="1.7259">
        <ele>2107.8</ele>
        <time>2018-11-10T11:12:36Z</time>
      </trkpt>
      <trkpt lat="42.63028" lon="1.72592">
        <ele>2107.7</ele>
        <time>2018-11-10T11:13:09Z</time>
      </trkpt>
      <trkpt lat="42.63003" lon="1.72606">
        <ele>2108.2</ele>
        <time>2018-11-10T11:13:35Z</time>
      </trkpt>
      <trkpt lat="42.62962" lon="1.72586">
        <ele>2108.2</ele>
        <time>2018-11-10T11:13:51Z</time>
      </trkpt>
      <trkpt lat="42.62939" lon="1.72584">
        <ele>2108.1</ele>
        <time>2018-11-10T11:14:06Z</time>
      </trkpt>
      <trkpt lat="42.62901" lon="1.72595">
        <ele>2108</ele>
        <time>2018-11-10T11:14:17Z</time>
      </trkpt>
      <trkpt lat="42.62879" lon="1.72616">
        <ele>2109.3</ele>
        <time>2018-11-10T11:17:20Z</time>
      </trkpt>
      <trkpt lat="42.6287" lon="1.72618">
        <ele>2109.3</ele>
        <time>2018-11-10T11:17:30Z</time>
      </trkpt>
      <trkpt lat="42.62835" lon="1.72655">
        <ele>2111.7</ele>
        <time>2018-11-10T11:18:17Z</time>
      </trkpt>
      <trkpt lat="42.62796" lon="1.72704">
        <ele>2124.3</ele>
        <time>2018-11-10T11:18:39Z</time>
      </trkpt>
      <trkpt lat="42.62783" lon="1.72691">
        <ele>2124</ele>
        <time>2018-11-10T11:18:51Z</time>
      </trkpt>
      <trkpt lat="42.62741" lon="1.72696">
        <ele>2127.3</ele>
        <time>2018-11-10T11:19:11Z</time>
      </trkpt>
      <trkpt lat="42.62714" lon="1.72659">
        <ele>2127.7</ele>
        <time>2018-11-10T11:19:22Z</time>
      </trkpt>
      <trkpt lat="42.6268" lon="1.72644">
        <ele>2128.9</ele>
        <time>2018-11-10T11:19:29Z</time>
      </trkpt>
      <trkpt lat="42.6265" lon="1.72629">
        <ele>2130.1</ele>
        <time>2018-11-10T11:19:44Z</time>
      </trkpt>
      <trkpt lat="42.62592" lon="1.7262">
        <ele>2129.3</ele>
        <time>2018-11-10T11:20:06Z</time>
      </trkpt>
      <trkpt lat="42.62545" lon="1.72592">
        <ele>2128</ele>
        <time>2018-11-10T11:20:34Z</time>
      </trkpt>
      <trkpt lat="42.62501" lon="1.72595">
        <ele>2127.9</ele>
        <time>2018-11-10T11:21:17Z</time>
      </trkpt>
      <trkpt lat="42.62451" lon="1.72571">
        <ele>2142.7</ele>
        <time>2018-11-10T11:21:31Z</time>
      </trkpt>
      <trkpt lat="42.62435" lon="1.72567">
        <ele>2145.4</ele>
        <time>2018-11-10T11:21:37Z</time>
      </trkpt>
      <trkpt lat="42.62423" lon="1.72567">
        <ele>2147.2</ele>
        <time>2018-11-10T11:22:30Z</time>
      </trkpt>
      <trkpt lat="42.62408" lon="1.72573">
        <ele>2165</ele>
        <time>2018-11-10T11:22:58Z</time>
      </trkpt>
      <trkpt lat="42.62408" lon="1.72564">
        <ele>2168.8</ele>
        <time>2018-11-10T11:25:31Z</time>
      </trkpt>
      <trkpt lat="42.624" lon="1.72566">
        <ele>2171.5</ele>
        <time>2018-11-10T11:25:51Z</time>
      </trkpt>
      <trkpt lat="42.62401" lon="1.72559">
        <ele>2172.4</ele>
        <time>2018-11-10T11:25:57Z</time>
      </trkpt>
      <trkpt lat="42.62393" lon="1.72561">
        <ele>2175.2</ele>
        <time>2018-11-10T11:27:00Z</time>
      </trkpt>
      <trkpt lat="42.62398" lon="1.72544">
        <ele>2175</ele>
        <time>2018-11-10T11:27:19Z</time>
      </trkpt>
      <trkpt lat="42.62388" lon="1.72549">
        <ele>2178.1</ele>
        <time>2018-11-10T11:27:59Z</time>
      </trkpt>
      <trkpt lat="42.62381" lon="1.72557">
        <ele>2180.6</ele>
        <time>2018-11-10T11:28:16Z</time>
      </trkpt>
      <trkpt lat="42.62374" lon="1.72552">
        <ele>2183.1</ele>
        <time>2018-11-10T11:28:20Z</time>
      </trkpt>
      <trkpt lat="42.62379" lon="1.72542">
        <ele>2181.1</ele>
        <time>2018-11-10T11:28:34Z</time>
      </trkpt>
      <trkpt lat="42.62382" lon="1.72519">
        <ele>2179.1</ele>
        <time>2018-11-10T11:29:01Z</time>
      </trkpt>
      <trkpt lat="42.62373" lon="1.72528">
        <ele>2182.8</ele>
        <time>2018-11-10T11:29:51Z</time>
      </trkpt>
      <trkpt lat="42.62371" lon="1.72514">
        <ele>2183.2</ele>
        <time>2018-11-10T11:30:03Z</time>
      </trkpt>
      <trkpt lat="42.62367" lon="1.72525">
        <ele>2185</ele>
        <time>2018-11-10T11:30:13Z</time>
      </trkpt>
      <trkpt lat="42.62364" lon="1.72515">
        <ele>2186</ele>
        <time>2018-11-10T11:31:03Z</time>
      </trkpt>
      <trkpt lat="42.62357" lon="1.72525">
        <ele>2188.2</ele>
        <time>2018-11-10T11:32:42Z</time>
      </trkpt>
      <trkpt lat="42.62357" lon="1.72505">
        <ele>2189.5</ele>
        <time>2018-11-10T11:33:55Z</time>
      </trkpt>
      <trkpt lat="42.62352" lon="1.72511">
        <ele>2191.1</ele>
        <time>2018-11-10T11:35:01Z</time>
      </trkpt>
      <trkpt lat="42.62347" lon="1.72494">
        <ele>2195.1</ele>
        <time>2018-11-10T11:35:20Z</time>
      </trkpt>
      <trkpt lat="42.62328" lon="1.72542">
        <ele>2229.5</ele>
        <time>2018-11-10T11:36:05Z</time>
      </trkpt>
      <trkpt lat="42.62326" lon="1.72526">
        <ele>2226</ele>
        <time>2018-11-10T11:36:28Z</time>
      </trkpt>
      <trkpt lat="42.62319" lon="1.72536">
        <ele>2230.1</ele>
        <time>2018-11-10T11:38:29Z</time>
      </trkpt>
      <trkpt lat="42.62315" lon="1.72527">
        <ele>2229.3</ele>
        <time>2018-11-10T12:13:00Z</time>
      </trkpt>
      <trkpt lat="42.62314" lon="1.72544">
        <ele>2232.7</ele>
        <time>2018-11-10T12:13:20Z</time>
      </trkpt>
      <trkpt lat="42.62311" lon="1.72534">
        <ele>2232.2</ele>
        <time>2018-11-10T12:14:05Z</time>
      </trkpt>
      <trkpt lat="42.62307" lon="1.7254">
        <ele>2234.3</ele>
        <time>2018-11-10T12:18:47Z</time>
      </trkpt>
      <trkpt lat="42.62309" lon="1.72529">
        <ele>2231.9</ele>
        <time>2018-11-10T12:19:53Z</time>
      </trkpt>
      <trkpt lat="42.62304" lon="1.7253">
        <ele>2233.7</ele>
        <time>2018-11-10T12:20:06Z</time>
      </trkpt>
      <trkpt lat="42.62304" lon="1.72525">
        <ele>2232.9</ele>
        <time>2018-11-10T12:20:17Z</time>
      </trkpt>
      <trkpt lat="42.62298" lon="1.72512">
        <ele>2233.8</ele>
        <time>2018-11-10T12:20:51Z</time>
      </trkpt>
      <trkpt lat="42.62296" lon="1.72498">
        <ele>2224.5</ele>
        <time>2018-11-10T12:21:05Z</time>
      </trkpt>
      <trkpt lat="42.62286" lon="1.72527">
        <ele>2239.9</ele>
        <time>2018-11-10T12:21:12Z</time>
      </trkpt>
      <trkpt lat="42.62278" lon="1.725">
        <ele>2242.5</ele>
        <time>2018-11-10T12:21:36Z</time>
      </trkpt>
      <trkpt lat="42.62273" lon="1.72552">
        <ele>2246.9</ele>
        <time>2018-11-10T12:22:06Z</time>
      </trkpt>
      <trkpt lat="42.62266" lon="1.7254">
        <ele>2246.9</ele>
        <time>2018-11-10T12:23:22Z</time>
      </trkpt>
      <trkpt lat="42.62262" lon="1.72528">
        <ele>2247</ele>
        <time>2018-11-10T12:23:49Z</time>
      </trkpt>
      <trkpt lat="42.62255" lon="1.72534">
        <ele>2248.3</ele>
        <time>2018-11-10T12:24:08Z</time>
      </trkpt>
      <trkpt lat="42.62248" lon="1.72504">
        <ele>2263.8</ele>
        <time>2018-11-10T12:24:20Z</time>
      </trkpt>
      <trkpt lat="42.62243" lon="1.72549">
        <ele>2286</ele>
        <time>2018-11-10T12:24:34Z</time>
      </trkpt>
      <trkpt lat="42.62243" lon="1.72571">
        <ele>2283.5</ele>
        <time>2018-11-10T12:24:58Z</time>
      </trkpt>
      <trkpt lat="42.62237" lon="1.72583">
        <ele>2283.7</ele>
        <time>2018-11-10T12:25:13Z</time>
      </trkpt>
      <trkpt lat="42.62233" lon="1.72561">
        <ele>2287.8</ele>
        <time>2018-11-10T12:25:37Z</time>
      </trkpt>
      <trkpt lat="42.62228" lon="1.7255">
        <ele>2289.5</ele>
        <time>2018-11-10T12:25:50Z</time>
      </trkpt>
      <trkpt lat="42.62224" lon="1.7257">
        <ele>2289.8</ele>
        <time>2018-11-10T12:25:57Z</time>
      </trkpt>
      <trkpt lat="42.62211" lon="1.72563">
        <ele>2294.7</ele>
        <time>2018-11-10T12:26:19Z</time>
      </trkpt>
      <trkpt lat="42.62209" lon="1.72543">
        <ele>2295.2</ele>
        <time>2018-11-10T12:26:28Z</time>
      </trkpt>
      <trkpt lat="42.62199" lon="1.72562">
        <ele>2298.8</ele>
        <time>2018-11-10T12:26:57Z</time>
      </trkpt>
      <trkpt lat="42.62197" lon="1.72554">
        <ele>2299.3</ele>
        <time>2018-11-10T12:27:07Z</time>
      </trkpt>
      <trkpt lat="42.6219" lon="1.72566">
        <ele>2302.4</ele>
        <time>2018-11-10T12:27:21Z</time>
      </trkpt>
      <trkpt lat="42.62184" lon="1.72551">
        <ele>2302.7</ele>
        <time>2018-11-10T12:27:31Z</time>
      </trkpt>
      <trkpt lat="42.62172" lon="1.72556">
        <ele>2305.7</ele>
        <time>2018-11-10T12:27:36Z</time>
      </trkpt>
      <trkpt lat="42.62168" lon="1.72574">
        <ele>2311.8</ele>
        <time>2018-11-10T12:28:32Z</time>
      </trkpt>
      <trkpt lat="42.62151" lon="1.72584">
        <ele>2323</ele>
        <time>2018-11-10T12:28:39Z</time>
      </trkpt>
      <trkpt lat="42.62134" lon="1.72607">
        <ele>2326.9</ele>
        <time>2018-11-10T12:28:50Z</time>
      </trkpt>
      <trkpt lat="42.62114" lon="1.72622">
        <ele>2328.8</ele>
        <time>2018-11-10T12:29:30Z</time>
      </trkpt>
      <trkpt lat="42.62105" lon="1.72631">
        <ele>2329</ele>
        <time>2018-11-10T12:30:13Z</time>
      </trkpt>
      <trkpt lat="42.6211" lon="1.7266">
        <ele>2328.1</ele>
        <time>2018-11-10T12:30:22Z</time>
      </trkpt>
      <trkpt lat="42.62126" lon="1.72687">
        <ele>2327.8</ele>
        <time>2018-11-10T12:30:31Z</time>
      </trkpt>
      <trkpt lat="42.62131" lon="1.72704">
        <ele>2328.1</ele>
        <time>2018-11-10T12:30:42Z</time>
      </trkpt>
      <trkpt lat="42.62147" lon="1.72705">
        <ele>2327.9</ele>
        <time>2018-11-10T12:30:51Z</time>
      </trkpt>
      <trkpt lat="42.62154" lon="1.72734">
        <ele>2329.3</ele>
        <time>2018-11-10T12:30:59Z</time>
      </trkpt>
      <trkpt lat="42.62157" lon="1.72763">
        <ele>2331.5</ele>
        <time>2018-11-10T12:31:08Z</time>
      </trkpt>
      <trkpt lat="42.62176" lon="1.72763">
        <ele>2331.7</ele>
        <time>2018-11-10T12:31:16Z</time>
      </trkpt>
      <trkpt lat="42.62194" lon="1.72807">
        <ele>2334.6</ele>
        <time>2018-11-10T12:31:26Z</time>
      </trkpt>
      <trkpt lat="42.62178" lon="1.72822">
        <ele>2336.5</ele>
        <time>2018-11-10T12:31:34Z</time>
      </trkpt>
      <trkpt lat="42.62171" lon="1.72843">
        <ele>2342.6</ele>
        <time>2018-11-10T12:31:40Z</time>
      </trkpt>
      <trkpt lat="42.6217" lon="1.72885">
        <ele>2349.6</ele>
        <time>2018-11-10T12:31:53Z</time>
      </trkpt>
      <trkpt lat="42.62144" lon="1.7295">
        <ele>2350</ele>
        <time>2018-11-10T12:32:00Z</time>
      </trkpt>
      <trkpt lat="42.62134" lon="1.72992">
        <ele>2353.1</ele>
        <time>2018-11-10T12:32:07Z</time>
      </trkpt>
      <trkpt lat="42.62119" lon="1.73001">
        <ele>2360.4</ele>
        <time>2018-11-10T12:32:39Z</time>
      </trkpt>
      <trkpt lat="42.62099" lon="1.73044">
        <ele>2362.7</ele>
        <time>2018-11-10T12:32:47Z</time>
      </trkpt>
      <trkpt lat="42.6207" lon="1.73048">
        <ele>2349.7</ele>
        <time>2018-11-10T12:32:59Z</time>
      </trkpt>
      <trkpt lat="42.6204" lon="1.73035">
        <ele>2346.7</ele>
        <time>2018-11-10T12:33:13Z</time>
      </trkpt>
      <trkpt lat="42.62008" lon="1.73014">
        <ele>2341.6</ele>
        <time>2018-11-10T12:33:23Z</time>
      </trkpt>
      <trkpt lat="42.61982" lon="1.73013">
        <ele>2342.1</ele>
        <time>2018-11-10T12:33:32Z</time>
      </trkpt>
      <trkpt lat="42.61917" lon="1.73038">
        <ele>2345.9</ele>
        <time>2018-11-10T12:33:46Z</time>
      </trkpt>
      <trkpt lat="42.61898" lon="1.73034">
        <ele>2343.6</ele>
        <time>2018-11-10T12:33:56Z</time>
      </trkpt>
      <trkpt lat="42.61896" lon="1.73089">
        <ele>2353.5</ele>
        <time>2018-11-10T12:34:07Z</time>
      </trkpt>
      <trkpt lat="42.61876" lon="1.73075">
        <ele>2344.8</ele>
        <time>2018-11-10T12:34:21Z</time>
      </trkpt>
      <trkpt lat="42.6185" lon="1.73085">
        <ele>2349.5</ele>
        <time>2018-11-10T12:34:29Z</time>
      </trkpt>
      <trkpt lat="42.61834" lon="1.73126">
        <ele>2354.2</ele>
        <time>2018-11-10T12:34:41Z</time>
      </trkpt>
      <trkpt lat="42.61816" lon="1.73158">
        <ele>2359.7</ele>
        <time>2018-11-10T12:34:52Z</time>
      </trkpt>
      <trkpt lat="42.61788" lon="1.73153">
        <ele>2363.2</ele>
        <time>2018-11-10T12:35:06Z</time>
      </trkpt>
      <trkpt lat="42.61767" lon="1.73129">
        <ele>2363.6</ele>
        <time>2018-11-10T12:35:15Z</time>
      </trkpt>
      <trkpt lat="42.61744" lon="1.73118">
        <ele>2377.3</ele>
        <time>2018-11-10T12:35:45Z</time>
      </trkpt>
      <trkpt lat="42.61722" lon="1.73131">
        <ele>2381.3</ele>
        <time>2018-11-10T12:35:53Z</time>
      </trkpt>
      <trkpt lat="42.61681" lon="1.73106">
        <ele>2385.7</ele>
        <time>2018-11-10T12:36:30Z</time>
      </trkpt>
      <trkpt lat="42.6167" lon="1.73111">
        <ele>2386.6</ele>
        <time>2018-11-10T12:37:02Z</time>
      </trkpt>
      <trkpt lat="42.61662" lon="1.73098">
        <ele>2398.7</ele>
        <time>2018-11-10T12:37:37Z</time>
      </trkpt>
      <trkpt lat="42.61637" lon="1.73092">
        <ele>2404.1</ele>
        <time>2018-11-10T12:37:47Z</time>
      </trkpt>
      <trkpt lat="42.61611" lon="1.73055">
        <ele>2404.9</ele>
        <time>2018-11-10T12:37:54Z</time>
      </trkpt>
      <trkpt lat="42.6159" lon="1.73063">
        <ele>2407.9</ele>
        <time>2018-11-10T12:38:03Z</time>
      </trkpt>
      <trkpt lat="42.61575" lon="1.73043">
        <ele>2423.7</ele>
        <time>2018-11-10T12:38:18Z</time>
      </trkpt>
      <trkpt lat="42.61557" lon="1.73039">
        <ele>2425.8</ele>
        <time>2018-11-10T12:38:33Z</time>
      </trkpt>
      <trkpt lat="42.61553" lon="1.73024">
        <ele>2426.3</ele>
        <time>2018-11-10T12:38:49Z</time>
      </trkpt>
      <trkpt lat="42.61549" lon="1.73004">
        <ele>2426.7</ele>
        <time>2018-11-10T12:38:56Z</time>
      </trkpt>
      <trkpt lat="42.61545" lon="1.73004">
        <ele>2427.6</ele>
        <time>2018-11-10T12:39:15Z</time>
      </trkpt>
      <trkpt lat="42.61538" lon="1.73018">
        <ele>2428.8</ele>
        <time>2018-11-10T12:39:25Z</time>
      </trkpt>
      <trkpt lat="42.61526" lon="1.73035">
        <ele>2430.3</ele>
        <time>2018-11-10T12:39:42Z</time>
      </trkpt>
      <trkpt lat="42.61489" lon="1.73016">
        <ele>2440</ele>
        <time>2018-11-10T12:42:18Z</time>
      </trkpt>
      <trkpt lat="42.61482" lon="1.73023">
        <ele>2440.3</ele>
        <time>2018-11-10T12:44:33Z</time>
      </trkpt>
      <trkpt lat="42.61461" lon="1.73021">
        <ele>2440.2</ele>
        <time>2018-11-10T12:45:02Z</time>
      </trkpt>
      <trkpt lat="42.61443" lon="1.73012">
        <ele>2439.1</ele>
        <time>2018-11-10T12:45:14Z</time>
      </trkpt>
      <trkpt lat="42.61436" lon="1.73">
        <ele>2437.8</ele>
        <time>2018-11-10T12:45:27Z</time>
      </trkpt>
      <trkpt lat="42.61425" lon="1.72989">
        <ele>2433.6</ele>
        <time>2018-11-10T12:45:44Z</time>
      </trkpt>
      <trkpt lat="42.61422" lon="1.72981">
        <ele>2433.2</ele>
        <time>2018-11-10T12:45:52Z</time>
      </trkpt>
      <trkpt lat="42.61409" lon="1.72897">
        <ele>2406.6</ele>
        <time>2018-11-10T12:46:02Z</time>
      </trkpt>
      <trkpt lat="42.61407" lon="1.7288">
        <ele>2403.2</ele>
        <time>2018-11-10T12:46:10Z</time>
      </trkpt>
      <trkpt lat="42.61404" lon="1.72848">
        <ele>2404</ele>
        <time>2018-11-10T12:46:21Z</time>
      </trkpt>
      <trkpt lat="42.614" lon="1.72829">
        <ele>2402.2</ele>
        <time>2018-11-10T12:46:47Z</time>
      </trkpt>
      <trkpt lat="42.61399" lon="1.72801">
        <ele>2397.9</ele>
        <time>2018-11-10T12:46:51Z</time>
      </trkpt>
      <trkpt lat="42.61394" lon="1.72793">
        <ele>2396.7</ele>
        <time>2018-11-10T12:47:11Z</time>
      </trkpt>
      <trkpt lat="42.61392" lon="1.72783">
        <ele>2396.6</ele>
        <time>2018-11-10T12:47:22Z</time>
      </trkpt>
      <trkpt lat="42.61384" lon="1.72746">
        <ele>2397.2</ele>
        <time>2018-11-10T12:47:33Z</time>
      </trkpt>
      <trkpt lat="42.6137" lon="1.72726">
        <ele>2393.1</ele>
        <time>2018-11-10T12:47:41Z</time>
      </trkpt>
      <trkpt lat="42.61356" lon="1.72698">
        <ele>2390.6</ele>
        <time>2018-11-10T12:47:54Z</time>
      </trkpt>
      <trkpt lat="42.61355" lon="1.72676">
        <ele>2389</ele>
        <time>2018-11-10T12:48:07Z</time>
      </trkpt>
      <trkpt lat="42.6135" lon="1.72677">
        <ele>2387.3</ele>
        <time>2018-11-10T12:48:18Z</time>
      </trkpt>
      <trkpt lat="42.61317" lon="1.72615">
        <ele>2369.7</ele>
        <time>2018-11-10T12:48:31Z</time>
      </trkpt>
      <trkpt lat="42.61294" lon="1.72596">
        <ele>2365.3</ele>
        <time>2018-11-10T12:48:46Z</time>
      </trkpt>
      <trkpt lat="42.61272" lon="1.72586">
        <ele>2358.2</ele>
        <time>2018-11-10T12:48:56Z</time>
      </trkpt>
      <trkpt lat="42.6126" lon="1.72554">
        <ele>2364.3</ele>
        <time>2018-11-10T12:49:11Z</time>
      </trkpt>
      <trkpt lat="42.6126" lon="1.72525">
        <ele>2365.9</ele>
        <time>2018-11-10T12:49:27Z</time>
      </trkpt>
      <trkpt lat="42.61253" lon="1.72501">
        <ele>2359.9</ele>
        <time>2018-11-10T12:49:38Z</time>
      </trkpt>
      <trkpt lat="42.61242" lon="1.72501">
        <ele>2351.2</ele>
        <time>2018-11-10T12:49:48Z</time>
      </trkpt>
      <trkpt lat="42.61241" lon="1.72491">
        <ele>2351.3</ele>
        <time>2018-11-10T12:49:57Z</time>
      </trkpt>
      <trkpt lat="42.61227" lon="1.72491">
        <ele>2346.5</ele>
        <time>2018-11-10T12:50:09Z</time>
      </trkpt>
      <trkpt lat="42.61212" lon="1.72475">
        <ele>2341.8</ele>
        <time>2018-11-10T12:50:21Z</time>
      </trkpt>
      <trkpt lat="42.61196" lon="1.72475">
        <ele>2337.6</ele>
        <time>2018-11-10T12:50:33Z</time>
      </trkpt>
      <trkpt lat="42.61137" lon="1.72426">
        <ele>2315.5</ele>
        <time>2018-11-10T12:50:51Z</time>
      </trkpt>
      <trkpt lat="42.61137" lon="1.7242">
        <ele>2315.8</ele>
        <time>2018-11-10T12:51:02Z</time>
      </trkpt>
      <trkpt lat="42.61126" lon="1.7242">
        <ele>2313.3</ele>
        <time>2018-11-10T12:51:14Z</time>
      </trkpt>
      <trkpt lat="42.61121" lon="1.7243">
        <ele>2312.1</ele>
        <time>2018-11-10T12:51:23Z</time>
      </trkpt>
      <trkpt lat="42.61107" lon="1.72432">
        <ele>2309.8</ele>
        <time>2018-11-10T12:51:38Z</time>
      </trkpt>
      <trkpt lat="42.61095" lon="1.72449">
        <ele>2308.9</ele>
        <time>2018-11-10T12:51:47Z</time>
      </trkpt>
      <trkpt lat="42.61078" lon="1.7244">
        <ele>2300.7</ele>
        <time>2018-11-10T12:51:55Z</time>
      </trkpt>
      <trkpt lat="42.61064" lon="1.72403">
        <ele>2302.2</ele>
        <time>2018-11-10T12:52:20Z</time>
      </trkpt>
      <trkpt lat="42.61051" lon="1.72381">
        <ele>2302</ele>
        <time>2018-11-10T12:52:33Z</time>
      </trkpt>
      <trkpt lat="42.61039" lon="1.72367">
        <ele>2301.7</ele>
        <time>2018-11-10T12:52:49Z</time>
      </trkpt>
      <trkpt lat="42.61024" lon="1.7235">
        <ele>2301.1</ele>
        <time>2018-11-10T12:53:01Z</time>
      </trkpt>
      <trkpt lat="42.6102" lon="1.72346">
        <ele>2300.8</ele>
        <time>2018-11-10T12:53:12Z</time>
      </trkpt>
      <trkpt lat="42.6099" lon="1.72346">
        <ele>2298.9</ele>
        <time>2018-11-10T12:53:31Z</time>
      </trkpt>
      <trkpt lat="42.60979" lon="1.72357">
        <ele>2298.9</ele>
        <time>2018-11-10T12:53:52Z</time>
      </trkpt>
      <trkpt lat="42.60964" lon="1.72356">
        <ele>2299</ele>
        <time>2018-11-10T12:54:11Z</time>
      </trkpt>
      <trkpt lat="42.60948" lon="1.72355">
        <ele>2299.2</ele>
        <time>2018-11-10T12:54:25Z</time>
      </trkpt>
      <trkpt lat="42.60931" lon="1.72347">
        <ele>2299.7</ele>
        <time>2018-11-10T12:54:44Z</time>
      </trkpt>
      <trkpt lat="42.6093" lon="1.72336">
        <ele>2300.1</ele>
        <time>2018-11-10T12:54:59Z</time>
      </trkpt>
      <trkpt lat="42.60935" lon="1.72308">
        <ele>2298.3</ele>
        <time>2018-11-10T12:55:20Z</time>
      </trkpt>
      <trkpt lat="42.60919" lon="1.72292">
        <ele>2298</ele>
        <time>2018-11-10T12:55:32Z</time>
      </trkpt>
      <trkpt lat="42.609" lon="1.72319">
        <ele>2308.8</ele>
        <time>2018-11-10T12:55:40Z</time>
      </trkpt>
      <trkpt lat="42.60897" lon="1.72314">
        <ele>2310</ele>
        <time>2018-11-10T12:55:52Z</time>
      </trkpt>
      <trkpt lat="42.60886" lon="1.72327">
        <ele>2312</ele>
        <time>2018-11-10T12:56:04Z</time>
      </trkpt>
      <trkpt lat="42.60882" lon="1.72288">
        <ele>2312.9</ele>
        <time>2018-11-10T12:56:14Z</time>
      </trkpt>
      <trkpt lat="42.60866" lon="1.72246">
        <ele>2315.8</ele>
        <time>2018-11-10T12:56:23Z</time>
      </trkpt>
      <trkpt lat="42.60871" lon="1.72154">
        <ele>2316.7</ele>
        <time>2018-11-10T12:56:28Z</time>
      </trkpt>
      <trkpt lat="42.60879" lon="1.72114">
        <ele>2314.3</ele>
        <time>2018-11-10T12:56:42Z</time>
      </trkpt>
      <trkpt lat="42.60877" lon="1.72086">
        <ele>2314.5</ele>
        <time>2018-11-10T12:56:50Z</time>
      </trkpt>
      <trkpt lat="42.6087" lon="1.7209">
        <ele>2317.9</ele>
        <time>2018-11-10T12:56:56Z</time>
      </trkpt>
      <trkpt lat="42.60868" lon="1.72048">
        <ele>2320.8</ele>
        <time>2018-11-10T12:58:08Z</time>
      </trkpt>
      <trkpt lat="42.60881" lon="1.72013">
        <ele>2316.9</ele>
        <time>2018-11-10T12:58:19Z</time>
      </trkpt>
      <trkpt lat="42.60872" lon="1.71992">
        <ele>2321.4</ele>
        <time>2018-11-10T12:58:33Z</time>
      </trkpt>
      <trkpt lat="42.60877" lon="1.71949">
        <ele>2318.3</ele>
        <time>2018-11-10T12:58:49Z</time>
      </trkpt>
      <trkpt lat="42.60871" lon="1.71938">
        <ele>2320</ele>
        <time>2018-11-10T12:58:59Z</time>
      </trkpt>
      <trkpt lat="42.60881" lon="1.71903">
        <ele>2311.3</ele>
        <time>2018-11-10T12:59:13Z</time>
      </trkpt>
      <trkpt lat="42.60882" lon="1.71892">
        <ele>2310.9</ele>
        <time>2018-11-10T12:59:28Z</time>
      </trkpt>
      <trkpt lat="42.60862" lon="1.71816">
        <ele>2307.5</ele>
        <time>2018-11-10T12:59:39Z</time>
      </trkpt>
      <trkpt lat="42.60857" lon="1.71807">
        <ele>2307.5</ele>
        <time>2018-11-10T12:59:53Z</time>
      </trkpt>
      <trkpt lat="42.60851" lon="1.71777">
        <ele>2305.3</ele>
        <time>2018-11-10T13:00:14Z</time>
      </trkpt>
      <trkpt lat="42.60833" lon="1.7175">
        <ele>2308.4</ele>
        <time>2018-11-10T13:00:25Z</time>
      </trkpt>
      <trkpt lat="42.60798" lon="1.71715">
        <ele>2313.4</ele>
        <time>2018-11-10T13:00:36Z</time>
      </trkpt>
      <trkpt lat="42.60798" lon="1.71689">
        <ele>2311</ele>
        <time>2018-11-10T13:00:45Z</time>
      </trkpt>
      <trkpt lat="42.60784" lon="1.71652">
        <ele>2305.2</ele>
        <time>2018-11-10T13:01:00Z</time>
      </trkpt>
      <trkpt lat="42.60772" lon="1.71643">
        <ele>2306.7</ele>
        <time>2018-11-10T13:01:12Z</time>
      </trkpt>
      <trkpt lat="42.60754" lon="1.71646">
        <ele>2309.7</ele>
        <time>2018-11-10T13:01:35Z</time>
      </trkpt>
      <trkpt lat="42.60728" lon="1.71616">
        <ele>2316.3</ele>
        <time>2018-11-10T13:01:48Z</time>
      </trkpt>
      <trkpt lat="42.60738" lon="1.71596">
        <ele>2313</ele>
        <time>2018-11-10T13:02:01Z</time>
      </trkpt>
      <trkpt lat="42.60733" lon="1.7157">
        <ele>2306.9</ele>
        <time>2018-11-10T13:02:15Z</time>
      </trkpt>
      <trkpt lat="42.60746" lon="1.71593">
        <ele>2311.3</ele>
        <time>2018-11-10T13:02:20Z</time>
      </trkpt>
      <trkpt lat="42.60765" lon="1.71597">
        <ele>2305.2</ele>
        <time>2018-11-10T13:02:33Z</time>
      </trkpt>
      <trkpt lat="42.60784" lon="1.71601">
        <ele>2302.9</ele>
        <time>2018-11-10T13:02:41Z</time>
      </trkpt>
      <trkpt lat="42.60799" lon="1.71621">
        <ele>2301.7</ele>
        <time>2018-11-10T13:02:55Z</time>
      </trkpt>
      <trkpt lat="42.60796" lon="1.71561">
        <ele>2299.5</ele>
        <time>2018-11-10T13:03:11Z</time>
      </trkpt>
      <trkpt lat="42.60782" lon="1.71518">
        <ele>2300.4</ele>
        <time>2018-11-10T13:03:19Z</time>
      </trkpt>
      <trkpt lat="42.60736" lon="1.71467">
        <ele>2296.9</ele>
        <time>2018-11-10T13:03:29Z</time>
      </trkpt>
      <trkpt lat="42.60674" lon="1.71373">
        <ele>2287.9</ele>
        <time>2018-11-10T13:03:47Z</time>
      </trkpt>
      <trkpt lat="42.60677" lon="1.71342">
        <ele>2283.5</ele>
        <time>2018-11-10T13:04:02Z</time>
      </trkpt>
      <trkpt lat="42.60667" lon="1.71335">
        <ele>2276.1</ele>
        <time>2018-11-10T13:04:15Z</time>
      </trkpt>
      <trkpt lat="42.6065" lon="1.71319">
        <ele>2273.4</ele>
        <time>2018-11-10T13:04:25Z</time>
      </trkpt>
      <trkpt lat="42.60621" lon="1.71288">
        <ele>2271.7</ele>
        <time>2018-11-10T13:04:43Z</time>
      </trkpt>
      <trkpt lat="42.60626" lon="1.7123">
        <ele>2278</ele>
        <time>2018-11-10T13:04:53Z</time>
      </trkpt>
      <trkpt lat="42.60628" lon="1.71209">
        <ele>2279.9</ele>
        <time>2018-11-10T13:05:02Z</time>
      </trkpt>
      <trkpt lat="42.60641" lon="1.71183">
        <ele>2285.6</ele>
        <time>2018-11-10T13:06:11Z</time>
      </trkpt>
      <trkpt lat="42.6065" lon="1.71148">
        <ele>2301.5</ele>
        <time>2018-11-10T13:06:23Z</time>
      </trkpt>
      <trkpt lat="42.60672" lon="1.7114">
        <ele>2331.4</ele>
        <time>2018-11-10T13:06:33Z</time>
      </trkpt>
      <trkpt lat="42.60677" lon="1.71105">
        <ele>2341.1</ele>
        <time>2018-11-10T13:06:41Z</time>
      </trkpt>
      <trkpt lat="42.60667" lon="1.71066">
        <ele>2351</ele>
        <time>2018-11-10T13:07:00Z</time>
      </trkpt>
      <trkpt lat="42.6066" lon="1.70986">
        <ele>2343.5</ele>
        <time>2018-11-10T13:07:33Z</time>
      </trkpt>
      <trkpt lat="42.60671" lon="1.70974">
        <ele>2360.6</ele>
        <time>2018-11-10T13:08:51Z</time>
      </trkpt>
      <trkpt lat="42.60669" lon="1.7093">
        <ele>2354.8</ele>
        <time>2018-11-10T13:09:47Z</time>
      </trkpt>
      <trkpt lat="42.60677" lon="1.70892">
        <ele>2346</ele>
        <time>2018-11-10T13:14:03Z</time>
      </trkpt>
      <trkpt lat="42.60674" lon="1.70878">
        <ele>2343.7</ele>
        <time>2018-11-10T13:14:11Z</time>
      </trkpt>
      <trkpt lat="42.60685" lon="1.70857">
        <ele>2340.1</ele>
        <time>2018-11-10T13:14:18Z</time>
      </trkpt>
      <trkpt lat="42.60664" lon="1.70798">
        <ele>2314.2</ele>
        <time>2018-11-10T13:14:55Z</time>
      </trkpt>
      <trkpt lat="42.60672" lon="1.70768">
        <ele>2319.6</ele>
        <time>2018-11-10T13:15:09Z</time>
      </trkpt>
      <trkpt lat="42.60691" lon="1.70744">
        <ele>2317.9</ele>
        <time>2018-11-10T13:15:20Z</time>
      </trkpt>
      <trkpt lat="42.60708" lon="1.70713">
        <ele>2320.3</ele>
        <time>2018-11-10T13:15:30Z</time>
      </trkpt>
      <trkpt lat="42.60749" lon="1.70655">
        <ele>2326.9</ele>
        <time>2018-11-10T13:15:42Z</time>
      </trkpt>
      <trkpt lat="42.60757" lon="1.70617">
        <ele>2341.3</ele>
        <time>2018-11-10T13:15:52Z</time>
      </trkpt>
      <trkpt lat="42.60748" lon="1.7057">
        <ele>2343.6</ele>
        <time>2018-11-10T13:16:01Z</time>
      </trkpt>
      <trkpt lat="42.60731" lon="1.70545">
        <ele>2349.2</ele>
        <time>2018-11-10T13:16:08Z</time>
      </trkpt>
      <trkpt lat="42.60736" lon="1.70519">
        <ele>2356.5</ele>
        <time>2018-11-10T13:16:20Z</time>
      </trkpt>
      <trkpt lat="42.60715" lon="1.70446">
        <ele>2368.7</ele>
        <time>2018-11-10T13:16:32Z</time>
      </trkpt>
      <trkpt lat="42.60703" lon="1.70406">
        <ele>2367</ele>
        <time>2018-11-10T13:16:49Z</time>
      </trkpt>
      <trkpt lat="42.60701" lon="1.70376">
        <ele>2364.9</ele>
        <time>2018-11-10T13:16:54Z</time>
      </trkpt>
      <trkpt lat="42.6068" lon="1.70329">
        <ele>2348</ele>
        <time>2018-11-10T13:17:04Z</time>
      </trkpt>
      <trkpt lat="42.60667" lon="1.70294">
        <ele>2344.7</ele>
        <time>2018-11-10T13:17:16Z</time>
      </trkpt>
      <trkpt lat="42.60659" lon="1.70244">
        <ele>2318.1</ele>
        <time>2018-11-10T13:17:30Z</time>
      </trkpt>
      <trkpt lat="42.60676" lon="1.70209">
        <ele>2325.4</ele>
        <time>2018-11-10T13:17:46Z</time>
      </trkpt>
      <trkpt lat="42.6068" lon="1.70148">
        <ele>2314.9</ele>
        <time>2018-11-10T13:17:58Z</time>
      </trkpt>
      <trkpt lat="42.60689" lon="1.70129">
        <ele>2318.9</ele>
        <time>2018-11-10T13:18:06Z</time>
      </trkpt>
      <trkpt lat="42.60699" lon="1.70108">
        <ele>2321.1</ele>
        <time>2018-11-10T13:18:16Z</time>
      </trkpt>
      <trkpt lat="42.60703" lon="1.70022">
        <ele>2322.1</ele>
        <time>2018-11-10T13:18:24Z</time>
      </trkpt>
      <trkpt lat="42.60698" lon="1.69968">
        <ele>2314.8</ele>
        <time>2018-11-10T13:18:33Z</time>
      </trkpt>
      <trkpt lat="42.60712" lon="1.69939">
        <ele>2316.6</ele>
        <time>2018-11-10T13:18:44Z</time>
      </trkpt>
      <trkpt lat="42.60701" lon="1.69879">
        <ele>2302.3</ele>
        <time>2018-11-10T13:18:54Z</time>
      </trkpt>
      <trkpt lat="42.6069" lon="1.69857">
        <ele>2297</ele>
        <time>2018-11-10T13:19:07Z</time>
      </trkpt>
      <trkpt lat="42.6069" lon="1.69827">
        <ele>2283.8</ele>
        <time>2018-11-10T13:19:16Z</time>
      </trkpt>
      <trkpt lat="42.60681" lon="1.6978">
        <ele>2276.6</ele>
        <time>2018-11-10T13:19:28Z</time>
      </trkpt>
      <trkpt lat="42.60685" lon="1.69733">
        <ele>2259.2</ele>
        <time>2018-11-10T13:19:39Z</time>
      </trkpt>
      <trkpt lat="42.60674" lon="1.69693">
        <ele>2251.9</ele>
        <time>2018-11-10T13:19:48Z</time>
      </trkpt>
      <trkpt lat="42.60654" lon="1.69648">
        <ele>2221.2</ele>
        <time>2018-11-10T13:19:59Z</time>
      </trkpt>
      <trkpt lat="42.60662" lon="1.69616">
        <ele>2214.9</ele>
        <time>2018-11-10T13:20:08Z</time>
      </trkpt>
      <trkpt lat="42.60662" lon="1.69562">
        <ele>2201.7</ele>
        <time>2018-11-10T13:20:17Z</time>
      </trkpt>
      <trkpt lat="42.60686" lon="1.69529">
        <ele>2206.2</ele>
        <time>2018-11-10T13:20:29Z</time>
      </trkpt>
      <trkpt lat="42.60724" lon="1.69505">
        <ele>2202.5</ele>
        <time>2018-11-10T13:20:38Z</time>
      </trkpt>
      <trkpt lat="42.60741" lon="1.6951">
        <ele>2199.8</ele>
        <time>2018-11-10T13:20:47Z</time>
      </trkpt>
      <trkpt lat="42.60769" lon="1.69489">
        <ele>2173.7</ele>
        <time>2018-11-10T13:20:57Z</time>
      </trkpt>
      <trkpt lat="42.60777" lon="1.69473">
        <ele>2166.7</ele>
        <time>2018-11-10T13:21:09Z</time>
      </trkpt>
      <trkpt lat="42.60799" lon="1.69449">
        <ele>2157.4</ele>
        <time>2018-11-10T13:21:21Z</time>
      </trkpt>
      <trkpt lat="42.60813" lon="1.69428">
        <ele>2148.5</ele>
        <time>2018-11-10T13:21:28Z</time>
      </trkpt>
      <trkpt lat="42.60849" lon="1.69437">
        <ele>2130</ele>
        <time>2018-11-10T13:21:36Z</time>
      </trkpt>
      <trkpt lat="42.60858" lon="1.69428">
        <ele>2128.5</ele>
        <time>2018-11-10T13:21:44Z</time>
      </trkpt>
      <trkpt lat="42.60858" lon="1.69402">
        <ele>2111.3</ele>
        <time>2018-11-10T13:21:52Z</time>
      </trkpt>
      <trkpt lat="42.60867" lon="1.6939">
        <ele>2106.7</ele>
        <time>2018-11-10T13:22:01Z</time>
      </trkpt>
      <trkpt lat="42.60873" lon="1.69383">
        <ele>2104.3</ele>
        <time>2018-11-10T13:22:08Z</time>
      </trkpt>
      <trkpt lat="42.60893" lon="1.6936">
        <ele>2096.8</ele>
        <time>2018-11-10T13:22:28Z</time>
      </trkpt>
      <trkpt lat="42.60912" lon="1.69353">
        <ele>2090.3</ele>
        <time>2018-11-10T13:22:47Z</time>
      </trkpt>
      <trkpt lat="42.60926" lon="1.69332">
        <ele>2067</ele>
        <time>2018-11-10T13:23:03Z</time>
      </trkpt>
      <trkpt lat="42.60936" lon="1.69325">
        <ele>2060.3</ele>
        <time>2018-11-10T13:23:13Z</time>
      </trkpt>
      <trkpt lat="42.60962" lon="1.6932">
        <ele>2053.1</ele>
        <time>2018-11-10T13:24:01Z</time>
      </trkpt>
      <trkpt lat="42.60964" lon="1.69289">
        <ele>2047.5</ele>
        <time>2018-11-10T13:24:13Z</time>
      </trkpt>
      <trkpt lat="42.61011" lon="1.69266">
        <ele>2029.7</ele>
        <time>2018-11-10T13:24:31Z</time>
      </trkpt>
      <trkpt lat="42.61034" lon="1.69264">
        <ele>2030.7</ele>
        <time>2018-11-10T13:24:49Z</time>
      </trkpt>
      <trkpt lat="42.61065" lon="1.6929">
        <ele>2031.7</ele>
        <time>2018-11-10T13:24:56Z</time>
      </trkpt>
      <trkpt lat="42.61101" lon="1.69314">
        <ele>2027.1</ele>
        <time>2018-11-10T13:25:06Z</time>
      </trkpt>
      <trkpt lat="42.61122" lon="1.69356">
        <ele>2034.7</ele>
        <time>2018-11-10T13:25:13Z</time>
      </trkpt>
      <trkpt lat="42.61149" lon="1.6936">
        <ele>2032</ele>
        <time>2018-11-10T13:25:42Z</time>
      </trkpt>
      <trkpt lat="42.61196" lon="1.69425">
        <ele>2040.5</ele>
        <time>2018-11-10T13:25:54Z</time>
      </trkpt>
      <trkpt lat="42.61271" lon="1.6948">
        <ele>2040.7</ele>
        <time>2018-11-10T13:26:03Z</time>
      </trkpt>
      <trkpt lat="42.61287" lon="1.69535">
        <ele>2051.7</ele>
        <time>2018-11-10T13:26:14Z</time>
      </trkpt>
      <trkpt lat="42.61338" lon="1.6954">
        <ele>2055.6</ele>
        <time>2018-11-10T13:26:26Z</time>
      </trkpt>
      <trkpt lat="42.61413" lon="1.69678">
        <ele>2092.1</ele>
        <time>2018-11-10T13:26:40Z</time>
      </trkpt>
      <trkpt lat="42.6143" lon="1.69678">
        <ele>2101.1</ele>
        <time>2018-11-10T13:26:52Z</time>
      </trkpt>
      <trkpt lat="42.6147" lon="1.69788">
        <ele>2123.6</ele>
        <time>2018-11-10T13:27:07Z</time>
      </trkpt>
      <trkpt lat="42.61504" lon="1.69843">
        <ele>2139.2</ele>
        <time>2018-11-10T13:27:25Z</time>
      </trkpt>
      <trkpt lat="42.61531" lon="1.69967">
        <ele>2154.8</ele>
        <time>2018-11-10T13:27:37Z</time>
      </trkpt>
      <trkpt lat="42.61552" lon="1.69969">
        <ele>2154.6</ele>
        <time>2018-11-10T13:28:01Z</time>
      </trkpt>
      <trkpt lat="42.61561" lon="1.69996">
        <ele>2154.5</ele>
        <time>2018-11-10T13:28:14Z</time>
      </trkpt>
      <trkpt lat="42.61574" lon="1.70001">
        <ele>2157.2</ele>
        <time>2018-11-10T13:28:26Z</time>
      </trkpt>
      <trkpt lat="42.61583" lon="1.70024">
        <ele>2163.7</ele>
        <time>2018-11-10T13:28:36Z</time>
      </trkpt>
      <trkpt lat="42.61602" lon="1.7005">
        <ele>2168.7</ele>
        <time>2018-11-10T13:28:48Z</time>
      </trkpt>
      <trkpt lat="42.61613" lon="1.7006">
        <ele>2170.3</ele>
        <time>2018-11-10T13:28:58Z</time>
      </trkpt>
      <trkpt lat="42.61621" lon="1.70091">
        <ele>2176.4</ele>
        <time>2018-11-10T13:29:09Z</time>
      </trkpt>
      <trkpt lat="42.61643" lon="1.70141">
        <ele>2178.5</ele>
        <time>2018-11-10T13:29:24Z</time>
      </trkpt>
      <trkpt lat="42.61673" lon="1.70181">
        <ele>2186.5</ele>
        <time>2018-11-10T13:29:39Z</time>
      </trkpt>
      <trkpt lat="42.61699" lon="1.70193">
        <ele>2193.9</ele>
        <time>2018-11-10T13:29:49Z</time>
      </trkpt>
      <trkpt lat="42.61775" lon="1.7034">
        <ele>2238.4</ele>
        <time>2018-11-10T13:30:00Z</time>
      </trkpt>
      <trkpt lat="42.61827" lon="1.70419">
        <ele>2252.3</ele>
        <time>2018-11-10T13:30:13Z</time>
      </trkpt>
      <trkpt lat="42.61837" lon="1.70425">
        <ele>2253.1</ele>
        <time>2018-11-10T13:30:25Z</time>
      </trkpt>
      <trkpt lat="42.61844" lon="1.70431">
        <ele>2255.6</ele>
        <time>2018-11-10T13:30:36Z</time>
      </trkpt>
      <trkpt lat="42.6186" lon="1.70433">
        <ele>2258.3</ele>
        <time>2018-11-10T13:30:50Z</time>
      </trkpt>
      <trkpt lat="42.61891" lon="1.70448">
        <ele>2261.9</ele>
        <time>2018-11-10T13:32:06Z</time>
      </trkpt>
      <trkpt lat="42.61923" lon="1.70475">
        <ele>2267.6</ele>
        <time>2018-11-10T13:32:19Z</time>
      </trkpt>
      <trkpt lat="42.61943" lon="1.70493">
        <ele>2267.4</ele>
        <time>2018-11-10T13:32:38Z</time>
      </trkpt>
      <trkpt lat="42.61958" lon="1.70503">
        <ele>2264.7</ele>
        <time>2018-11-10T13:32:48Z</time>
      </trkpt>
      <trkpt lat="42.61971" lon="1.70511">
        <ele>2263.5</ele>
        <time>2018-11-10T13:33:04Z</time>
      </trkpt>
      <trkpt lat="42.62008" lon="1.70515">
        <ele>2252</ele>
        <time>2018-11-10T13:33:13Z</time>
      </trkpt>
      <trkpt lat="42.62018" lon="1.70539">
        <ele>2245.2</ele>
        <time>2018-11-10T13:33:28Z</time>
      </trkpt>
      <trkpt lat="42.62013" lon="1.70559">
        <ele>2243.6</ele>
        <time>2018-11-10T13:33:39Z</time>
      </trkpt>
      <trkpt lat="42.62018" lon="1.70589">
        <ele>2235.8</ele>
        <time>2018-11-10T13:33:52Z</time>
      </trkpt>
      <trkpt lat="42.62029" lon="1.70619">
        <ele>2230.1</ele>
        <time>2018-11-10T13:34:05Z</time>
      </trkpt>
      <trkpt lat="42.62045" lon="1.7062">
        <ele>2227.4</ele>
        <time>2018-11-10T13:34:17Z</time>
      </trkpt>
      <trkpt lat="42.62044" lon="1.70631">
        <ele>2227.2</ele>
        <time>2018-11-10T13:34:27Z</time>
      </trkpt>
      <trkpt lat="42.62075" lon="1.70645">
        <ele>2220.9</ele>
        <time>2018-11-10T13:34:38Z</time>
      </trkpt>
      <trkpt lat="42.62092" lon="1.70645">
        <ele>2211.2</ele>
        <time>2018-11-10T13:34:54Z</time>
      </trkpt>
      <trkpt lat="42.62119" lon="1.70658">
        <ele>2209.4</ele>
        <time>2018-11-10T13:35:09Z</time>
      </trkpt>
      <trkpt lat="42.62134" lon="1.70669">
        <ele>2204.8</ele>
        <time>2018-11-10T13:35:19Z</time>
      </trkpt>
      <trkpt lat="42.62145" lon="1.70675">
        <ele>2203.7</ele>
        <time>2018-11-10T13:35:50Z</time>
      </trkpt>
      <trkpt lat="42.62158" lon="1.70681">
        <ele>2202.7</ele>
        <time>2018-11-10T13:35:58Z</time>
      </trkpt>
      <trkpt lat="42.62224" lon="1.70741">
        <ele>2195.2</ele>
        <time>2018-11-10T13:36:09Z</time>
      </trkpt>
      <trkpt lat="42.62258" lon="1.70783">
        <ele>2187.9</ele>
        <time>2018-11-10T13:36:19Z</time>
      </trkpt>
      <trkpt lat="42.62285" lon="1.7081">
        <ele>2186.9</ele>
        <time>2018-11-10T13:36:27Z</time>
      </trkpt>
      <trkpt lat="42.62303" lon="1.7082">
        <ele>2185.8</ele>
        <time>2018-11-10T13:36:37Z</time>
      </trkpt>
      <trkpt lat="42.62322" lon="1.70818">
        <ele>2184.5</ele>
        <time>2018-11-10T13:36:49Z</time>
      </trkpt>
      <trkpt lat="42.62355" lon="1.70832">
        <ele>2179.5</ele>
        <time>2018-11-10T13:36:54Z</time>
      </trkpt>
      <trkpt lat="42.62377" lon="1.70798">
        <ele>2178</ele>
        <time>2018-11-10T13:37:03Z</time>
      </trkpt>
      <trkpt lat="42.62402" lon="1.70788">
        <ele>2176.8</ele>
        <time>2018-11-10T13:37:10Z</time>
      </trkpt>
      <trkpt lat="42.62415" lon="1.70796">
        <ele>2176.1</ele>
        <time>2018-11-10T13:37:21Z</time>
      </trkpt>
      <trkpt lat="42.62464" lon="1.70771">
        <ele>2162.6</ele>
        <time>2018-11-10T13:37:32Z</time>
      </trkpt>
      <trkpt lat="42.62479" lon="1.7078">
        <ele>2160.6</ele>
        <time>2018-11-10T13:37:41Z</time>
      </trkpt>
      <trkpt lat="42.6249" lon="1.70773">
        <ele>2159.8</ele>
        <time>2018-11-10T13:37:50Z</time>
      </trkpt>
      <trkpt lat="42.62543" lon="1.70775">
        <ele>2151.5</ele>
        <time>2018-11-10T13:38:01Z</time>
      </trkpt>
      <trkpt lat="42.626" lon="1.70764">
        <ele>2151.2</ele>
        <time>2018-11-10T13:38:11Z</time>
      </trkpt>
      <trkpt lat="42.62631" lon="1.70782">
        <ele>2151.5</ele>
        <time>2018-11-10T13:38:25Z</time>
      </trkpt>
      <trkpt lat="42.62712" lon="1.70859">
        <ele>2149.6</ele>
        <time>2018-11-10T13:38:34Z</time>
      </trkpt>
      <trkpt lat="42.62739" lon="1.70873">
        <ele>2149.3</ele>
        <time>2018-11-10T13:39:42Z</time>
      </trkpt>
      <trkpt lat="42.62788" lon="1.70862">
        <ele>2150.6</ele>
        <time>2018-11-10T13:40:59Z</time>
      </trkpt>
      <trkpt lat="42.62843" lon="1.70873">
        <ele>2151.2</ele>
        <time>2018-11-10T13:41:15Z</time>
      </trkpt>
      <trkpt lat="42.6288" lon="1.7086">
        <ele>2151.8</ele>
        <time>2018-11-10T13:41:26Z</time>
      </trkpt>
      <trkpt lat="42.62905" lon="1.7087">
        <ele>2151.6</ele>
        <time>2018-11-10T13:41:37Z</time>
      </trkpt>
      <trkpt lat="42.62921" lon="1.70906">
        <ele>2150.5</ele>
        <time>2018-11-10T13:42:14Z</time>
      </trkpt>
      <trkpt lat="42.62948" lon="1.70923">
        <ele>2148.4</ele>
        <time>2018-11-10T13:42:32Z</time>
      </trkpt>
      <trkpt lat="42.62967" lon="1.70924">
        <ele>2149</ele>
        <time>2018-11-10T13:42:40Z</time>
      </trkpt>
      <trkpt lat="42.62984" lon="1.70936">
        <ele>2149.3</ele>
        <time>2018-11-10T13:42:50Z</time>
      </trkpt>
      <trkpt lat="42.63019" lon="1.70951">
        <ele>2154.1</ele>
        <time>2018-11-10T13:43:05Z</time>
      </trkpt>
      <trkpt lat="42.63034" lon="1.70972">
        <ele>2154.4</ele>
        <time>2018-11-10T13:43:19Z</time>
      </trkpt>
      <trkpt lat="42.63015" lon="1.70945">
        <ele>2154</ele>
        <time>2018-11-10T13:43:25Z</time>
      </trkpt>
      <trkpt lat="42.62969" lon="1.7092">
        <ele>2149.1</ele>
        <time>2018-11-10T13:43:50Z</time>
      </trkpt>
      <trkpt lat="42.62948" lon="1.70919">
        <ele>2148.5</ele>
        <time>2018-11-10T13:44:28Z</time>
      </trkpt>
      <trkpt lat="42.62933" lon="1.70904">
        <ele>2151.9</ele>
        <time>2018-11-10T13:51:15Z</time>
      </trkpt>
      <trkpt lat="42.62944" lon="1.70919">
        <ele>2148</ele>
        <time>2018-11-10T13:51:22Z</time>
      </trkpt>
      <trkpt lat="42.62937" lon="1.7091">
        <ele>2146</ele>
        <time>2018-11-10T13:51:37Z</time>
      </trkpt>
      <trkpt lat="42.6293" lon="1.70903">
        <ele>2146</ele>
        <time>2018-11-10T14:01:28Z</time>
      </trkpt>
      <trkpt lat="42.62928" lon="1.7089">
        <ele>2146</ele>
        <time>2018-11-10T14:17:48Z</time>
      </trkpt>
      <trkpt lat="42.62927" lon="1.70876">
        <ele>2153</ele>
        <time>2018-11-10T14:19:29Z</time>
      </trkpt>
      <trkpt lat="42.62923" lon="1.70865">
        <ele>2159</ele>
        <time>2018-11-10T14:19:41Z</time>
      </trkpt>
      <trkpt lat="42.62918" lon="1.70855">
        <ele>2157</ele>
        <time>2018-11-10T14:20:29Z</time>
      </trkpt>
      <trkpt lat="42.62912" lon="1.70845">
        <ele>2152</ele>
        <time>2018-11-10T14:20:37Z</time>
      </trkpt>
      <trkpt lat="42.62909" lon="1.70831">
        <ele>2151</ele>
        <time>2018-11-10T14:20:49Z</time>
      </trkpt>
      <trkpt lat="42.62903" lon="1.70821">
        <ele>2153</ele>
        <time>2018-11-10T14:21:05Z</time>
      </trkpt>
      <trkpt lat="42.62897" lon="1.70812">
        <ele>2152</ele>
        <time>2018-11-10T14:21:13Z</time>
      </trkpt>
      <trkpt lat="42.62893" lon="1.70797">
        <ele>2156</ele>
        <time>2018-11-10T14:21:20Z</time>
      </trkpt>
      <trkpt lat="42.62902" lon="1.70793">
        <ele>2156</ele>
        <time>2018-11-10T14:21:36Z</time>
      </trkpt>
      <trkpt lat="42.62902" lon="1.70779">
        <ele>2156</ele>
        <time>2018-11-10T14:21:42Z</time>
      </trkpt>
      <trkpt lat="42.62902" lon="1.70767">
        <ele>2158</ele>
        <time>2018-11-10T14:21:48Z</time>
      </trkpt>
      <trkpt lat="42.62903" lon="1.70753">
        <ele>2162</ele>
        <time>2018-11-10T14:21:54Z</time>
      </trkpt>
      <trkpt lat="42.62907" lon="1.70741">
        <ele>2156</ele>
        <time>2018-11-10T14:22:09Z</time>
      </trkpt>
      <trkpt lat="42.62914" lon="1.7073">
        <ele>2155</ele>
        <time>2018-11-10T14:22:16Z</time>
      </trkpt>
      <trkpt lat="42.62921" lon="1.70722">
        <ele>2160</ele>
        <time>2018-11-10T14:22:33Z</time>
      </trkpt>
      <trkpt lat="42.62927" lon="1.70712">
        <ele>2161</ele>
        <time>2018-11-10T14:22:46Z</time>
      </trkpt>
      <trkpt lat="42.62934" lon="1.70705">
        <ele>2163</ele>
        <time>2018-11-10T14:23:07Z</time>
      </trkpt>
      <trkpt lat="42.62936" lon="1.70691">
        <ele>2159</ele>
        <time>2018-11-10T14:23:16Z</time>
      </trkpt>
      <trkpt lat="42.62942" lon="1.70682">
        <ele>2162</ele>
        <time>2018-11-10T14:23:24Z</time>
      </trkpt>
      <trkpt lat="42.62948" lon="1.70671">
        <ele>2165</ele>
        <time>2018-11-10T14:23:32Z</time>
      </trkpt>
      <trkpt lat="42.62939" lon="1.70666">
        <ele>2165</ele>
        <time>2018-11-10T14:23:44Z</time>
      </trkpt>
      <trkpt lat="42.62931" lon="1.70662">
        <ele>2163</ele>
        <time>2018-11-10T14:23:51Z</time>
      </trkpt>
      <trkpt lat="42.62923" lon="1.7067">
        <ele>2166</ele>
        <time>2018-11-10T14:23:59Z</time>
      </trkpt>
      <trkpt lat="42.6293" lon="1.70661">
        <ele>2163</ele>
        <time>2018-11-10T14:24:24Z</time>
      </trkpt>
      <trkpt lat="42.62938" lon="1.70656">
        <ele>2161</ele>
        <time>2018-11-10T14:24:29Z</time>
      </trkpt>
      <trkpt lat="42.62946" lon="1.70649">
        <ele>2159</ele>
        <time>2018-11-10T14:24:38Z</time>
      </trkpt>
      <trkpt lat="42.62955" lon="1.70649">
        <ele>2156</ele>
        <time>2018-11-10T14:24:56Z</time>
      </trkpt>
      <trkpt lat="42.62964" lon="1.7065">
        <ele>2159</ele>
        <time>2018-11-10T14:25:10Z</time>
      </trkpt>
      <trkpt lat="42.62973" lon="1.70653">
        <ele>2157</ele>
        <time>2018-11-10T14:25:36Z</time>
      </trkpt>
      <trkpt lat="42.62984" lon="1.70653">
        <ele>2155</ele>
        <time>2018-11-10T14:25:53Z</time>
      </trkpt>
      <trkpt lat="42.62993" lon="1.70648">
        <ele>2156</ele>
        <time>2018-11-10T14:26:06Z</time>
      </trkpt>
      <trkpt lat="42.62997" lon="1.70637">
        <ele>2157</ele>
        <time>2018-11-10T14:26:17Z</time>
      </trkpt>
      <trkpt lat="42.63008" lon="1.70637">
        <ele>2152</ele>
        <time>2018-11-10T14:26:27Z</time>
      </trkpt>
      <trkpt lat="42.63018" lon="1.70635">
        <ele>2154</ele>
        <time>2018-11-10T14:26:35Z</time>
      </trkpt>
      <trkpt lat="42.63027" lon="1.70631">
        <ele>2154</ele>
        <time>2018-11-10T14:26:46Z</time>
      </trkpt>
      <trkpt lat="42.63034" lon="1.70623">
        <ele>2146</ele>
        <time>2018-11-10T14:26:56Z</time>
      </trkpt>
      <trkpt lat="42.63043" lon="1.70621">
        <ele>2144</ele>
        <time>2018-11-10T14:27:04Z</time>
      </trkpt>
      <trkpt lat="42.6305" lon="1.70613">
        <ele>2138</ele>
        <time>2018-11-10T14:27:12Z</time>
      </trkpt>
      <trkpt lat="42.63056" lon="1.70602">
        <ele>2146</ele>
        <time>2018-11-10T14:27:20Z</time>
      </trkpt>
      <trkpt lat="42.63065" lon="1.70596">
        <ele>2147</ele>
        <time>2018-11-10T14:27:28Z</time>
      </trkpt>
      <trkpt lat="42.63074" lon="1.70595">
        <ele>2150</ele>
        <time>2018-11-10T14:27:40Z</time>
      </trkpt>
      <trkpt lat="42.63084" lon="1.70594">
        <ele>2154</ele>
        <time>2018-11-10T14:27:49Z</time>
      </trkpt>
      <trkpt lat="42.63093" lon="1.70605">
        <ele>2154</ele>
        <time>2018-11-10T14:27:59Z</time>
      </trkpt>
      <trkpt lat="42.63089" lon="1.70617">
        <ele>2152</ele>
        <time>2018-11-10T14:28:06Z</time>
      </trkpt>
      <trkpt lat="42.63098" lon="1.70624">
        <ele>2144</ele>
        <time>2018-11-10T14:28:17Z</time>
      </trkpt>
      <trkpt lat="42.63107" lon="1.70623">
        <ele>2141</ele>
        <time>2018-11-10T14:28:24Z</time>
      </trkpt>
      <trkpt lat="42.6312" lon="1.70625">
        <ele>2143</ele>
        <time>2018-11-10T14:28:33Z</time>
      </trkpt>
      <trkpt lat="42.6313" lon="1.70625">
        <ele>2142</ele>
        <time>2018-11-10T14:28:42Z</time>
      </trkpt>
      <trkpt lat="42.6314" lon="1.70624">
        <ele>2120</ele>
        <time>2018-11-10T14:28:52Z</time>
      </trkpt>
      <trkpt lat="42.63148" lon="1.70618">
        <ele>2125</ele>
        <time>2018-11-10T14:29:01Z</time>
      </trkpt>
      <trkpt lat="42.63157" lon="1.70614">
        <ele>2133</ele>
        <time>2018-11-10T14:29:12Z</time>
      </trkpt>
      <trkpt lat="42.63167" lon="1.70614">
        <ele>2136</ele>
        <time>2018-11-10T14:29:19Z</time>
      </trkpt>
      <trkpt lat="42.63176" lon="1.70618">
        <ele>2134</ele>
        <time>2018-11-10T14:29:46Z</time>
      </trkpt>
      <trkpt lat="42.63184" lon="1.70622">
        <ele>2138</ele>
        <time>2018-11-10T14:29:57Z</time>
      </trkpt>
      <trkpt lat="42.63175" lon="1.70622">
        <ele>2142</ele>
        <time>2018-11-10T14:30:32Z</time>
      </trkpt>
      <trkpt lat="42.63166" lon="1.7062">
        <ele>2141</ele>
        <time>2018-11-10T14:30:43Z</time>
      </trkpt>
      <trkpt lat="42.63156" lon="1.70616">
        <ele>2139</ele>
        <time>2018-11-10T14:30:54Z</time>
      </trkpt>
      <trkpt lat="42.63147" lon="1.70619">
        <ele>2136</ele>
        <time>2018-11-10T14:31:07Z</time>
      </trkpt>
      <trkpt lat="42.63138" lon="1.70624">
        <ele>2139</ele>
        <time>2018-11-10T14:31:19Z</time>
      </trkpt>
      <trkpt lat="42.63128" lon="1.70626">
        <ele>2142</ele>
        <time>2018-11-10T14:32:00Z</time>
      </trkpt>
      <trkpt lat="42.63118" lon="1.70623">
        <ele>2144</ele>
        <time>2018-11-10T14:36:25Z</time>
      </trkpt>
      <trkpt lat="42.63109" lon="1.70625">
        <ele>2144</ele>
        <time>2018-11-10T14:36:34Z</time>
      </trkpt>
      <trkpt lat="42.63099" lon="1.70622">
        <ele>2141</ele>
        <time>2018-11-10T14:36:53Z</time>
      </trkpt>
      <trkpt lat="42.63107" lon="1.70629">
        <ele>2128</ele>
        <time>2018-11-10T14:37:06Z</time>
      </trkpt>
      <trkpt lat="42.63117" lon="1.70629">
        <ele>2132</ele>
        <time>2018-11-10T08:28:31Z</time>
      </trkpt>
      <trkpt lat="42.6313" lon="1.7063">
        <ele>2133</ele>
        <time>2018-11-10T08:28:31Z</time>
      </trkpt>
      <trkpt lat="42.63144" lon="1.70623">
        <ele>2137</ele>
        <time>2018-11-10T08:28:41Z</time>
      </trkpt>
      <trkpt lat="42.63151" lon="1.70614">
        <ele>2131</ele>
        <time>2018-11-10T08:30:14Z</time>
      </trkpt>
      <trkpt lat="42.6316" lon="1.70612">
        <ele>2138</ele>
        <time>2018-11-10T08:30:41Z</time>
      </trkpt>
      <trkpt lat="42.6317" lon="1.70608">
        <ele>2139</ele>
        <time>2018-11-10T08:31:25Z</time>
      </trkpt>
      <trkpt lat="42.6318" lon="1.70605">
        <ele>2139</ele>
        <time>2018-11-10T08:31:35Z</time>
      </trkpt>
      <trkpt lat="42.63184" lon="1.70594">
        <ele>2136</ele>
        <time>2018-11-10T08:31:46Z</time>
      </trkpt>
      <trkpt lat="42.63192" lon="1.70586">
        <ele>2138</ele>
        <time>2018-11-10T08:32:10Z</time>
      </trkpt>
      <trkpt lat="42.63199" lon="1.70577">
        <ele>2141</ele>
        <time>2018-11-10T08:32:17Z</time>
      </trkpt>
      <trkpt lat="42.63208" lon="1.70577">
        <ele>2138</ele>
        <time>2018-11-10T08:32:27Z</time>
      </trkpt>
      <trkpt lat="42.63218" lon="1.70578">
        <ele>2133</ele>
        <time>2018-11-10T08:32:36Z</time>
      </trkpt>
      <trkpt lat="42.63227" lon="1.7058">
        <ele>2131</ele>
        <time>2018-11-10T08:33:20Z</time>
      </trkpt>
      <trkpt lat="42.63238" lon="1.70582">
        <ele>2130</ele>
        <time>2018-11-10T08:33:38Z</time>
      </trkpt>
      <trkpt lat="42.63248" lon="1.70585">
        <ele>2132</ele>
        <time>2018-11-10T08:33:50Z</time>
      </trkpt>
      <trkpt lat="42.6325" lon="1.7057">
        <ele>2126</ele>
        <time>2018-11-10T08:33:56Z</time>
      </trkpt>
      <trkpt lat="42.63257" lon="1.70559">
        <ele>2124</ele>
        <time>2018-11-10T08:34:06Z</time>
      </trkpt>
      <trkpt lat="42.63265" lon="1.70547">
        <ele>2120</ele>
        <time>2018-11-10T08:34:13Z</time>
      </trkpt>
      <trkpt lat="42.63271" lon="1.70537">
        <ele>2116</ele>
        <time>2018-11-10T08:34:24Z</time>
      </trkpt>
      <trkpt lat="42.63279" lon="1.7053">
        <ele>2119</ele>
        <time>2018-11-10T08:34:38Z</time>
      </trkpt>
      <trkpt lat="42.63287" lon="1.70522">
        <ele>2120</ele>
        <time>2018-11-10T08:35:07Z</time>
      </trkpt>
      <trkpt lat="42.63295" lon="1.70516">
        <ele>2120</ele>
        <time>2018-11-10T08:35:17Z</time>
      </trkpt>
      <trkpt lat="42.63303" lon="1.7051">
        <ele>2118</ele>
        <time>2018-11-10T08:35:37Z</time>
      </trkpt>
      <trkpt lat="42.63313" lon="1.70512">
        <ele>2112</ele>
        <time>2018-11-10T08:35:47Z</time>
      </trkpt>
      <trkpt lat="42.63312" lon="1.70525">
        <ele>2102</ele>
        <time>2018-11-10T08:36:17Z</time>
      </trkpt>
      <trkpt lat="42.63304" lon="1.70534">
        <ele>2102</ele>
        <time>2018-11-10T08:36:25Z</time>
      </trkpt>
      <trkpt lat="42.63301" lon="1.70546">
        <ele>2101</ele>
        <time>2018-11-10T08:36:34Z</time>
      </trkpt>
      <trkpt lat="42.63296" lon="1.7056">
        <ele>2101</ele>
        <time>2018-11-10T08:36:48Z</time>
      </trkpt>
      <trkpt lat="42.63288" lon="1.70573">
        <ele>2094</ele>
        <time>2018-11-10T08:36:57Z</time>
      </trkpt>
      <trkpt lat="42.63286" lon="1.70589">
        <ele>2091</ele>
        <time>2018-11-10T08:37:13Z</time>
      </trkpt>
      <trkpt lat="42.63294" lon="1.70596">
        <ele>2091</ele>
        <time>2018-11-10T08:37:25Z</time>
      </trkpt>
      <trkpt lat="42.63303" lon="1.70602">
        <ele>2082</ele>
        <time>2018-11-10T08:37:53Z</time>
      </trkpt>
      <trkpt lat="42.63312" lon="1.70608">
        <ele>2082</ele>
        <time>2018-11-10T08:38:01Z</time>
      </trkpt>
      <trkpt lat="42.63322" lon="1.70619">
        <ele>2074</ele>
        <time>2018-11-10T08:38:14Z</time>
      </trkpt>
      <trkpt lat="42.63328" lon="1.70629">
        <ele>2074</ele>
        <time>2018-11-10T08:38:35Z</time>
      </trkpt>
      <trkpt lat="42.63335" lon="1.70639">
        <ele>2071</ele>
        <time>2018-11-10T08:38:40Z</time>
      </trkpt>
      <trkpt lat="42.63333" lon="1.70651">
        <ele>2072</ele>
        <time>2018-11-10T08:39:04Z</time>
      </trkpt>
      <trkpt lat="42.63328" lon="1.7064">
        <ele>2067</ele>
        <time>2018-11-10T08:39:11Z</time>
      </trkpt>
      <trkpt lat="42.63336" lon="1.70643">
        <ele>2071</ele>
        <time>2018-11-10T08:39:21Z</time>
      </trkpt>
      <trkpt lat="42.63329" lon="1.70635">
        <ele>2066</ele>
        <time>2018-11-10T08:39:29Z</time>
      </trkpt>
      <trkpt lat="42.63336" lon="1.70627">
        <ele>2063</ele>
        <time>2018-11-10T08:39:38Z</time>
      </trkpt>
      <trkpt lat="42.63343" lon="1.70617">
        <ele>2066</ele>
        <time>2018-11-10T08:39:44Z</time>
      </trkpt>
      <trkpt lat="42.63352" lon="1.70611">
        <ele>2065</ele>
        <time>2018-11-10T08:39:59Z</time>
      </trkpt>
      <trkpt lat="42.63359" lon="1.7062">
        <ele>2059</ele>
        <time>2018-11-10T08:40:08Z</time>
      </trkpt>
      <trkpt lat="42.63363" lon="1.70632">
        <ele>2059</ele>
        <time>2018-11-10T08:40:16Z</time>
      </trkpt>
      <trkpt lat="42.63363" lon="1.70645">
        <ele>2067</ele>
        <time>2018-11-10T08:40:29Z</time>
      </trkpt>
      <trkpt lat="42.63375" lon="1.70651">
        <ele>2063</ele>
        <time>2018-11-10T08:40:44Z</time>
      </trkpt>
      <trkpt lat="42.63381" lon="1.7066">
        <ele>2063</ele>
        <time>2018-11-10T08:41:20Z</time>
      </trkpt>
      <trkpt lat="42.63379" lon="1.70646">
        <ele>2048</ele>
        <time>2018-11-10T08:41:27Z</time>
      </trkpt>
      <trkpt lat="42.63383" lon="1.70657">
        <ele>2039</ele>
        <time>2018-11-10T08:41:39Z</time>
      </trkpt>
      <trkpt lat="42.63389" lon="1.70668">
        <ele>2041</ele>
        <time>2018-11-10T08:41:46Z</time>
      </trkpt>
      <trkpt lat="42.63396" lon="1.70657">
        <ele>2039</ele>
        <time>2018-11-10T08:41:58Z</time>
      </trkpt>
      <trkpt lat="42.63405" lon="1.70656">
        <ele>2038</ele>
        <time>2018-11-10T08:42:13Z</time>
      </trkpt>
      <trkpt lat="42.63413" lon="1.70663">
        <ele>2029</ele>
        <time>2018-11-10T08:42:26Z</time>
      </trkpt>
      <trkpt lat="42.63423" lon="1.70659">
        <ele>2028</ele>
        <time>2018-11-10T08:42:35Z</time>
      </trkpt>
      <trkpt lat="42.63428" lon="1.70648">
        <ele>2024</ele>
        <time>2018-11-10T08:42:43Z</time>
      </trkpt>
      <trkpt lat="42.63436" lon="1.70642">
        <ele>2024</ele>
        <time>2018-11-10T08:42:57Z</time>
      </trkpt>
      <trkpt lat="42.63448" lon="1.70646">
        <ele>2026</ele>
        <time>2018-11-10T08:43:04Z</time>
      </trkpt>
      <trkpt lat="42.63458" lon="1.70641">
        <ele>2020</ele>
        <time>2018-11-10T08:43:12Z</time>
      </trkpt>
      <trkpt lat="42.63467" lon="1.70637">
        <ele>2021</ele>
        <time>2018-11-10T08:43:23Z</time>
      </trkpt>
      <trkpt lat="42.63476" lon="1.70628">
        <ele>2018</ele>
        <time>2018-11-10T08:43:31Z</time>
      </trkpt>
      <trkpt lat="42.6348" lon="1.70617">
        <ele>2016</ele>
        <time>2018-11-10T08:43:41Z</time>
      </trkpt>
      <trkpt lat="42.63488" lon="1.70608">
        <ele>2014</ele>
        <time>2018-11-10T08:43:53Z</time>
      </trkpt>
      <trkpt lat="42.63498" lon="1.70611">
        <ele>2011</ele>
        <time>2018-11-10T08:44:01Z</time>
      </trkpt>
      <trkpt lat="42.63499" lon="1.70597">
        <ele>2011</ele>
        <time>2018-11-10T08:44:11Z</time>
      </trkpt>
      <trkpt lat="42.63506" lon="1.7059">
        <ele>2012</ele>
        <time>2018-11-10T08:44:19Z</time>
      </trkpt>
      <trkpt lat="42.63513" lon="1.70582">
        <ele>2014</ele>
        <time>2018-11-10T08:44:29Z</time>
      </trkpt>
      <trkpt lat="42.63517" lon="1.70594">
        <ele>2010</ele>
        <time>2018-11-10T08:44:46Z</time>
      </trkpt>
      <trkpt lat="42.63517" lon="1.70581">
        <ele>2011</ele>
        <time>2018-11-10T08:45:00Z</time>
      </trkpt>
      <trkpt lat="42.63523" lon="1.70572">
        <ele>2004</ele>
        <time>2018-11-10T08:45:13Z</time>
      </trkpt>
      <trkpt lat="42.63532" lon="1.70566">
        <ele>2007</ele>
        <time>2018-11-10T08:45:25Z</time>
      </trkpt>
      <trkpt lat="42.63541" lon="1.70564">
        <ele>2003</ele>
        <time>2018-11-10T08:45:39Z</time>
      </trkpt>
      <trkpt lat="42.6355" lon="1.70557">
        <ele>1997</ele>
        <time>2018-11-10T08:45:48Z</time>
      </trkpt>
      <trkpt lat="42.63561" lon="1.7056">
        <ele>1997</ele>
        <time>2018-11-10T08:46:05Z</time>
      </trkpt>
      <trkpt lat="42.6357" lon="1.70555">
        <ele>1997</ele>
        <time>2018-11-10T08:46:24Z</time>
      </trkpt>
      <trkpt lat="42.63578" lon="1.70549">
        <ele>1998</ele>
        <time>2018-11-10T08:46:38Z</time>
      </trkpt>
      <trkpt lat="42.63584" lon="1.70537">
        <ele>1997</ele>
        <time>2018-11-10T08:46:52Z</time>
      </trkpt>
      <trkpt lat="42.63593" lon="1.70538">
        <ele>1994</ele>
        <time>2018-11-10T08:47:00Z</time>
      </trkpt>
      <trkpt lat="42.63603" lon="1.70541">
        <ele>1993</ele>
        <time>2018-11-10T08:47:09Z</time>
      </trkpt>
      <trkpt lat="42.63613" lon="1.70546">
        <ele>1993</ele>
        <time>2018-11-10T08:47:25Z</time>
      </trkpt>
      <trkpt lat="42.63612" lon="1.70533">
        <ele>1988</ele>
        <time>2018-11-10T08:47:38Z</time>
      </trkpt>
      <trkpt lat="42.63616" lon="1.70522">
        <ele>1988</ele>
        <time>2018-11-10T08:47:50Z</time>
      </trkpt>
      <trkpt lat="42.63623" lon="1.70514">
        <ele>1987</ele>
        <time>2018-11-10T08:48:02Z</time>
      </trkpt>
      <trkpt lat="42.63628" lon="1.70499">
        <ele>1979</ele>
        <time>2018-11-10T08:48:16Z</time>
      </trkpt>
      <trkpt lat="42.63633" lon="1.7049">
        <ele>1980</ele>
        <time>2018-11-10T08:48:34Z</time>
      </trkpt>
      <trkpt lat="42.63639" lon="1.70478">
        <ele>1981</ele>
        <time>2018-11-10T08:48:41Z</time>
      </trkpt>
      <trkpt lat="42.63644" lon="1.70467">
        <ele>1982</ele>
        <time>2018-11-10T08:48:58Z</time>
      </trkpt>
      <trkpt lat="42.63652" lon="1.7046">
        <ele>1980</ele>
        <time>2018-11-10T08:49:24Z</time>
      </trkpt>
      <trkpt lat="42.63661" lon="1.70464">
        <ele>1977</ele>
        <time>2018-11-10T08:49:31Z</time>
      </trkpt>
      <trkpt lat="42.63667" lon="1.70454">
        <ele>1974</ele>
        <time>2018-11-10T08:49:54Z</time>
      </trkpt>
      <trkpt lat="42.63676" lon="1.70449">
        <ele>1974</ele>
        <time>2018-11-10T08:50:28Z</time>
      </trkpt>
      <trkpt lat="42.6368" lon="1.70437">
        <ele>1971</ele>
        <time>2018-11-10T08:50:46Z</time>
      </trkpt>
      <trkpt lat="42.63686" lon="1.70428">
        <ele>1968</ele>
        <time>2018-11-10T08:51:12Z</time>
      </trkpt>
      <trkpt lat="42.63692" lon="1.70418">
        <ele>1966</ele>
        <time>2018-11-10T08:51:43Z</time>
      </trkpt>
      <trkpt lat="42.63696" lon="1.70407">
        <ele>1969</ele>
        <time>2018-11-10T08:52:09Z</time>
      </trkpt>
      <trkpt lat="42.63702" lon="1.70396">
        <ele>1968</ele>
        <time>2018-11-10T08:52:18Z</time>
      </trkpt>
      <trkpt lat="42.63709" lon="1.70386">
        <ele>1966</ele>
        <time>2018-11-10T08:52:27Z</time>
      </trkpt>
      <trkpt lat="42.63713" lon="1.70374">
        <ele>1966</ele>
        <time>2018-11-10T08:52:40Z</time>
      </trkpt>
      <trkpt lat="42.63721" lon="1.7037">
        <ele>1961</ele>
        <time>2018-11-10T08:52:57Z</time>
      </trkpt>
      <trkpt lat="42.63726" lon="1.70359">
        <ele>1961</ele>
        <time>2018-11-10T08:53:14Z</time>
      </trkpt>
      <trkpt lat="42.63735" lon="1.70356">
        <ele>1963</ele>
        <time>2018-11-10T08:53:27Z</time>
      </trkpt>
      <trkpt lat="42.63744" lon="1.70353">
        <ele>1956</ele>
        <time>2018-11-10T08:53:50Z</time>
      </trkpt>
      <trkpt lat="42.63742" lon="1.70341">
        <ele>1961</ele>
        <time>2018-11-10T08:54:04Z</time>
      </trkpt>
      <trkpt lat="42.63747" lon="1.70329">
        <ele>1961</ele>
        <time>2018-11-10T08:54:36Z</time>
      </trkpt>
      <trkpt lat="42.63752" lon="1.70319">
        <ele>1961</ele>
        <time>2018-11-10T08:54:47Z</time>
      </trkpt>
      <trkpt lat="42.63757" lon="1.70308">
        <ele>1965</ele>
        <time>2018-11-10T08:55:03Z</time>
      </trkpt>
      <trkpt lat="42.63763" lon="1.70298">
        <ele>1964</ele>
        <time>2018-11-10T08:55:31Z</time>
      </trkpt>
      <trkpt lat="42.63763" lon="1.70283">
        <ele>1964</ele>
        <time>2018-11-10T08:55:47Z</time>
      </trkpt>
      <trkpt lat="42.63772" lon="1.70285">
        <ele>1957</ele>
        <time>2018-11-10T08:56:13Z</time>
      </trkpt>
      <trkpt lat="42.63774" lon="1.70273">
        <ele>1953</ele>
        <time>2018-11-10T08:56:26Z</time>
      </trkpt>
      <trkpt lat="42.63779" lon="1.70262">
        <ele>1947</ele>
        <time>2018-11-10T08:56:51Z</time>
      </trkpt>
      <trkpt lat="42.63785" lon="1.70252">
        <ele>1948</ele>
        <time>2018-11-10T08:56:58Z</time>
      </trkpt>
      <trkpt lat="42.63787" lon="1.70239">
        <ele>1945</ele>
        <time>2018-11-10T08:57:23Z</time>
      </trkpt>
      <trkpt lat="42.63797" lon="1.70239">
        <ele>1945</ele>
        <time>2018-11-10T08:57:37Z</time>
      </trkpt>
      <trkpt lat="42.63792" lon="1.70228">
        <ele>1946</ele>
        <time>2018-11-10T08:57:55Z</time>
      </trkpt>
      <trkpt lat="42.63792" lon="1.70213">
        <ele>1943</ele>
        <time>2018-11-10T08:58:15Z</time>
      </trkpt>
      <trkpt lat="42.63796" lon="1.70199">
        <ele>1944</ele>
        <time>2018-11-10T08:58:34Z</time>
      </trkpt>
      <trkpt lat="42.638" lon="1.70185">
        <ele>1944</ele>
        <time>2018-11-10T09:01:52Z</time>
      </trkpt>
      <trkpt lat="42.63808" lon="1.70176">
        <ele>1945</ele>
      </trkpt>
      <trkpt lat="42.63812" lon="1.70165">
        <ele>1944</ele>
      </trkpt>
      <trkpt lat="42.63816" lon="1.70152">
        <ele>1945</ele>
      </trkpt>
      <trkpt lat="42.6382" lon="1.7014">
        <ele>1946</ele>
      </trkpt>
      <trkpt lat="42.63824" lon="1.70127">
        <ele>1943</ele>
      </trkpt>
      <trkpt lat="42.63828" lon="1.70112">
        <ele>1933</ele>
      </trkpt>
      <trkpt lat="42.6383" lon="1.701">
        <ele>1937</ele>
      </trkpt>
      <trkpt lat="42.63825" lon="1.70088">
        <ele>1931</ele>
      </trkpt>
      <trkpt lat="42.63826" lon="1.70074">
        <ele>1932</ele>
      </trkpt>
      <trkpt lat="42.63827" lon="1.70061">
        <ele>1933</ele>
      </trkpt>
      <trkpt lat="42.63826" lon="1.70048">
        <ele>1934</ele>
      </trkpt>
      <trkpt lat="42.63824" lon="1.70034">
        <ele>1932</ele>
      </trkpt>
      <trkpt lat="42.63823" lon="1.70022">
        <ele>1935</ele>
      </trkpt>
      <trkpt lat="42.6382" lon="1.70009">
        <ele>1935</ele>
      </trkpt>
      <trkpt lat="42.63818" lon="1.69997">
        <ele>1933</ele>
      </trkpt>
      <trkpt lat="42.63816" lon="1.69985">
        <ele>1932</ele>
      </trkpt>
      <trkpt lat="42.63816" lon="1.69972">
        <ele>1932</ele>
      </trkpt>
      <trkpt lat="42.63814" lon="1.6996">
        <ele>1929</ele>
      </trkpt>
      <trkpt lat="42.63809" lon="1.69948">
        <ele>1928</ele>
      </trkpt>
      <trkpt lat="42.63804" lon="1.69939">
        <ele>1927</ele>
      </trkpt>
      <trkpt lat="42.638" lon="1.69927">
        <ele>1926</ele>
      </trkpt>
      <trkpt lat="42.63798" lon="1.69914">
        <ele>1924</ele>
      </trkpt>
      <trkpt lat="42.63792" lon="1.69903">
        <ele>1922</ele>
      </trkpt>
      <trkpt lat="42.6379" lon="1.69889">
        <ele>1919</ele>
      </trkpt>
      <trkpt lat="42.63784" lon="1.69879">
        <ele>1921</ele>
      </trkpt>
      <trkpt lat="42.63784" lon="1.69865">
        <ele>1911</ele>
      </trkpt>
      <trkpt lat="42.63781" lon="1.69853">
        <ele>1912</ele>
      </trkpt>
      <trkpt lat="42.63777" lon="1.69839">
        <ele>1912</ele>
      </trkpt>
      <trkpt lat="42.63774" lon="1.69827">
        <ele>1912</ele>
      </trkpt>
      <trkpt lat="42.6377" lon="1.69815">
        <ele>1905</ele>
      </trkpt>
      <trkpt lat="42.63766" lon="1.69803">
        <ele>1904</ele>
      </trkpt>
      <trkpt lat="42.63763" lon="1.69791">
        <ele>1903</ele>
      </trkpt>
      <trkpt lat="42.63758" lon="1.69781">
        <ele>1905</ele>
      </trkpt>
      <trkpt lat="42.63755" lon="1.69769">
        <ele>1898</ele>
      </trkpt>
      <trkpt lat="42.6375" lon="1.69759">
        <ele>1897</ele>
      </trkpt>
      <trkpt lat="42.63751" lon="1.69746">
        <ele>1898</ele>
      </trkpt>
      <trkpt lat="42.63749" lon="1.69734">
        <ele>1897</ele>
      </trkpt>
      <trkpt lat="42.63745" lon="1.69723">
        <ele>1894</ele>
      </trkpt>
      <trkpt lat="42.63741" lon="1.6971">
        <ele>1892</ele>
      </trkpt>
      <trkpt lat="42.63741" lon="1.69698">
        <ele>1892</ele>
      </trkpt>
      <trkpt lat="42.63737" lon="1.69686">
        <ele>1893</ele>
      </trkpt>
      <trkpt lat="42.63736" lon="1.69673">
        <ele>1890</ele>
      </trkpt>
      <trkpt lat="42.63732" lon="1.69661">
        <ele>1889</ele>
      </trkpt>
      <trkpt lat="42.63729" lon="1.69649">
        <ele>1891</ele>
      </trkpt>
      <trkpt lat="42.63731" lon="1.69637">
        <ele>1888</ele>
      </trkpt>
      <trkpt lat="42.63728" lon="1.69625">
        <ele>1889</ele>
      </trkpt>
      <trkpt lat="42.63727" lon="1.69612">
        <ele>1883</ele>
      </trkpt>
      <trkpt lat="42.63726" lon="1.69598">
        <ele>1883</ele>
      </trkpt>
      <trkpt lat="42.63725" lon="1.69585">
        <ele>1887</ele>
      </trkpt>
      <trkpt lat="42.63724" lon="1.69572">
        <ele>1888</ele>
      </trkpt>
      <trkpt lat="42.63725" lon="1.69559">
        <ele>1888</ele>
      </trkpt>
      <trkpt lat="42.63726" lon="1.69544">
        <ele>1882</ele>
      </trkpt>
      <trkpt lat="42.63729" lon="1.69532">
        <ele>1884</ele>
      </trkpt>
      <trkpt lat="42.63731" lon="1.6952">
        <ele>1884</ele>
      </trkpt>
      <trkpt lat="42.63729" lon="1.69508">
        <ele>1882</ele>
      </trkpt>
      <trkpt lat="42.63729" lon="1.69495">
        <ele>1880</ele>
      </trkpt>
      <trkpt lat="42.6373" lon="1.69481">
        <ele>1882</ele>
      </trkpt>
      <trkpt lat="42.63732" lon="1.69469">
        <ele>1882</ele>
      </trkpt>
      <trkpt lat="42.63733" lon="1.69457">
        <ele>1880</ele>
      </trkpt>
      <trkpt lat="42.63728" lon="1.69445">
        <ele>1879</ele>
      </trkpt>
      <trkpt lat="42.63732" lon="1.69433">
        <ele>1881</ele>
      </trkpt>
      <trkpt lat="42.6374" lon="1.69427">
        <ele>1881</ele>
      </trkpt>
      <trkpt lat="42.63748" lon="1.6942">
        <ele>1879</ele>
      </trkpt>
      <trkpt lat="42.63756" lon="1.69414">
        <ele>1871</ele>
      </trkpt>
      <trkpt lat="42.63762" lon="1.69403">
        <ele>1866</ele>
      </trkpt>
      <trkpt lat="42.63765" lon="1.69391">
        <ele>1863</ele>
      </trkpt>
      <trkpt lat="42.63759" lon="1.69379">
        <ele>1867</ele>
      </trkpt>
      <trkpt lat="42.63765" lon="1.69369">
        <ele>1869</ele>
      </trkpt>
      <trkpt lat="42.63772" lon="1.6936">
        <ele>1867</ele>
      </trkpt>
      <trkpt lat="42.63775" lon="1.69349">
        <ele>1862</ele>
      </trkpt>
      <trkpt lat="42.6377" lon="1.69338">
        <ele>1862</ele>
      </trkpt>
      <trkpt lat="42.6377" lon="1.69325">
        <ele>1860</ele>
      </trkpt>
      <trkpt lat="42.63769" lon="1.69313">
        <ele>1860</ele>
      </trkpt>
      <trkpt lat="42.63778" lon="1.69309">
        <ele>1854</ele>
      </trkpt>
      <trkpt lat="42.63777" lon="1.69296">
        <ele>1856</ele>
      </trkpt>
      <trkpt lat="42.6377" lon="1.69288">
        <ele>1859</ele>
      </trkpt>
      <trkpt lat="42.6377" lon="1.69275">
        <ele>1857</ele>
      </trkpt>
      <trkpt lat="42.63767" lon="1.69263">
        <ele>1865</ele>
      </trkpt>
      <trkpt lat="42.63775" lon="1.69254">
        <ele>1862</ele>
      </trkpt>
      <trkpt lat="42.63783" lon="1.69246">
        <ele>1861</ele>
      </trkpt>
      <trkpt lat="42.63786" lon="1.69235">
        <ele>1860</ele>
      </trkpt>
      <trkpt lat="42.63777" lon="1.69229">
        <ele>1866</ele>
      </trkpt>
      <trkpt lat="42.6377" lon="1.69221">
        <ele>1863</ele>
      </trkpt>
      <trkpt lat="42.63764" lon="1.69211">
        <ele>1864</ele>
      </trkpt>
      <trkpt lat="42.63758" lon="1.69201">
        <ele>1861</ele>
      </trkpt>
      <trkpt lat="42.6375" lon="1.69192">
        <ele>1864</ele>
      </trkpt>
      <trkpt lat="42.63743" lon="1.69184">
        <ele>1870</ele>
      </trkpt>
      <trkpt lat="42.63742" lon="1.69171">
        <ele>1871</ele>
      </trkpt>
      <trkpt lat="42.63738" lon="1.69159">
        <ele>1869</ele>
      </trkpt>
      <trkpt lat="42.63741" lon="1.69147">
        <ele>1867</ele>
      </trkpt>
      <trkpt lat="42.63746" lon="1.69136">
        <ele>1865</ele>
      </trkpt>
      <trkpt lat="42.63743" lon="1.69124">
        <ele>1866</ele>
      </trkpt>
      <trkpt lat="42.63743" lon="1.69112">
        <ele>1869</ele>
      </trkpt>
      <trkpt lat="42.63752" lon="1.69114">
        <ele>1864</ele>
      </trkpt>
      <trkpt lat="42.63752" lon="1.691">
        <ele>1869</ele>
      </trkpt>
      <trkpt lat="42.63755" lon="1.69088">
        <ele>1874</ele>
      </trkpt>
      <trkpt lat="42.63762" lon="1.69081">
        <ele>1872</ele>
      </trkpt>
      <trkpt lat="42.63773" lon="1.69076">
        <ele>1868</ele>
      </trkpt>
      <trkpt lat="42.63782" lon="1.69071">
        <ele>1870</ele>
      </trkpt>
      <trkpt lat="42.63785" lon="1.69082">
        <ele>1869</ele>
      </trkpt>
      <trkpt lat="42.63793" lon="1.69094">
        <ele>1871</ele>
      </trkpt>
      <trkpt lat="42.63801" lon="1.69103">
        <ele>1870</ele>
      </trkpt>
      <trkpt lat="42.63808" lon="1.69112">
        <ele>1873</ele>
      </trkpt>
      <trkpt lat="42.63814" lon="1.69123">
        <ele>1869</ele>
      </trkpt>
      <trkpt lat="42.63817" lon="1.69134">
        <ele>1866</ele>
      </trkpt>
      <trkpt lat="42.63822" lon="1.69144">
        <ele>1867</ele>
      </trkpt>
      <trkpt lat="42.63832" lon="1.6915">
        <ele>1865</ele>
      </trkpt>
      <trkpt lat="42.63834" lon="1.69162">
        <ele>1863</ele>
      </trkpt>
      <trkpt lat="42.6384" lon="1.69174">
        <ele>1860</ele>
      </trkpt>
      <trkpt lat="42.63845" lon="1.69186">
        <ele>1865</ele>
      </trkpt>
      <trkpt lat="42.63855" lon="1.6919">
        <ele>1862</ele>
      </trkpt>
      <trkpt lat="42.63859" lon="1.69202">
        <ele>1865</ele>
      </trkpt>
      <trkpt lat="42.63867" lon="1.69208">
        <ele>1859</ele>
      </trkpt>
      <trkpt lat="42.63873" lon="1.6922">
        <ele>1858</ele>
      </trkpt>
      <trkpt lat="42.6387" lon="1.69232">
        <ele>1859</ele>
      </trkpt>
      <trkpt lat="42.63873" lon="1.69244">
        <ele>1855</ele>
      </trkpt>
      <trkpt lat="42.63875" lon="1.69256">
        <ele>1856</ele>
      </trkpt>
      <trkpt lat="42.63881" lon="1.69266">
        <ele>1857</ele>
      </trkpt>
      <trkpt lat="42.63886" lon="1.69276">
        <ele>1855</ele>
      </trkpt>
      <trkpt lat="42.6389" lon="1.69287">
        <ele>1855</ele>
      </trkpt>
      <trkpt lat="42.63896" lon="1.69298">
        <ele>1853</ele>
      </trkpt>
      <trkpt lat="42.63903" lon="1.69308">
        <ele>1852</ele>
      </trkpt>
      <trkpt lat="42.63909" lon="1.69318">
        <ele>1851</ele>
      </trkpt>
      <trkpt lat="42.6391" lon="1.69331">
        <ele>1851</ele>
      </trkpt>
      <trkpt lat="42.63916" lon="1.6934">
        <ele>1847</ele>
      </trkpt>
      <trkpt lat="42.63919" lon="1.69352">
        <ele>1848</ele>
      </trkpt>
      <trkpt lat="42.63922" lon="1.69364">
        <ele>1846</ele>
      </trkpt>
      <trkpt lat="42.63927" lon="1.69374">
        <ele>1844</ele>
      </trkpt>
      <trkpt lat="42.63933" lon="1.69384">
        <ele>1845</ele>
      </trkpt>
      <trkpt lat="42.63935" lon="1.69396">
        <ele>1843</ele>
      </trkpt>
      <trkpt lat="42.63937" lon="1.69409">
        <ele>1840</ele>
      </trkpt>
      <trkpt lat="42.6394" lon="1.6942">
        <ele>1839</ele>
      </trkpt>
      <trkpt lat="42.63942" lon="1.69433">
        <ele>1837</ele>
      </trkpt>
      <trkpt lat="42.63947" lon="1.69444">
        <ele>1831</ele>
      </trkpt>
      <trkpt lat="42.63948" lon="1.69457">
        <ele>1830</ele>
      </trkpt>
      <trkpt lat="42.63953" lon="1.69468">
        <ele>1833</ele>
      </trkpt>
      <trkpt lat="42.6396" lon="1.69476">
        <ele>1833</ele>
      </trkpt>
      <trkpt lat="42.63968" lon="1.69481">
        <ele>1832</ele>
      </trkpt>
      <trkpt lat="42.63977" lon="1.69477">
        <ele>1827</ele>
      </trkpt>
      <trkpt lat="42.63985" lon="1.69487">
        <ele>1827</ele>
      </trkpt>
      <trkpt lat="42.63987" lon="1.695">
        <ele>1828</ele>
      </trkpt>
      <trkpt lat="42.63994" lon="1.69509">
        <ele>1826</ele>
      </trkpt>
      <trkpt lat="42.64001" lon="1.69518">
        <ele>1821</ele>
      </trkpt>
      <trkpt lat="42.64004" lon="1.6953">
        <ele>1816</ele>
      </trkpt>
      <trkpt lat="42.6401" lon="1.69542">
        <ele>1818</ele>
      </trkpt>
      <trkpt lat="42.64002" lon="1.69547">
        <ele>1822</ele>
      </trkpt>
      <trkpt lat="42.64007" lon="1.69564">
        <ele>1817</ele>
      </trkpt>
      <trkpt lat="42.64014" lon="1.69574">
        <ele>1814</ele>
      </trkpt>
      <trkpt lat="42.64013" lon="1.69588">
        <ele>1819</ele>
      </trkpt>
      <trkpt lat="42.64021" lon="1.69595">
        <ele>1816</ele>
      </trkpt>
      <trkpt lat="42.64028" lon="1.69605">
        <ele>1819</ele>
      </trkpt>
      <trkpt lat="42.64033" lon="1.69616">
        <ele>1822</ele>
      </trkpt>
      <trkpt lat="42.64041" lon="1.69623">
        <ele>1815</ele>
      </trkpt>
      <trkpt lat="42.64044" lon="1.69634">
        <ele>1813</ele>
      </trkpt>
      <trkpt lat="42.64048" lon="1.69646">
        <ele>1810</ele>
      </trkpt>
      <trkpt lat="42.64056" lon="1.69655">
        <ele>1805</ele>
      </trkpt>
      <trkpt lat="42.64053" lon="1.69669">
        <ele>1801</ele>
      </trkpt>
      <trkpt lat="42.64059" lon="1.69678">
        <ele>1794</ele>
      </trkpt>
      <trkpt lat="42.64064" lon="1.6969">
        <ele>1796</ele>
      </trkpt>
      <trkpt lat="42.64066" lon="1.69703">
        <ele>1796</ele>
      </trkpt>
      <trkpt lat="42.6407" lon="1.69714">
        <ele>1792</ele>
      </trkpt>
      <trkpt lat="42.64075" lon="1.69725">
        <ele>1791</ele>
      </trkpt>
      <trkpt lat="42.64083" lon="1.69733">
        <ele>1787</ele>
      </trkpt>
      <trkpt lat="42.64087" lon="1.69745">
        <ele>1781</ele>
      </trkpt>
      <trkpt lat="42.64091" lon="1.69757">
        <ele>1777</ele>
      </trkpt>
      <trkpt lat="42.64096" lon="1.69769">
        <ele>1777</ele>
      </trkpt>
      <trkpt lat="42.64102" lon="1.69779">
        <ele>1776</ele>
      </trkpt>
      <trkpt lat="42.6411" lon="1.69786">
        <ele>1772</ele>
      </trkpt>
      <trkpt lat="42.64118" lon="1.69793">
        <ele>1771</ele>
      </trkpt>
      <trkpt lat="42.64125" lon="1.69801">
        <ele>1767</ele>
      </trkpt>
      <trkpt lat="42.64133" lon="1.69808">
        <ele>1766</ele>
      </trkpt>
      <trkpt lat="42.64141" lon="1.69815">
        <ele>1767</ele>
      </trkpt>
      <trkpt lat="42.6415" lon="1.69819">
        <ele>1767</ele>
      </trkpt>
      <trkpt lat="42.64158" lon="1.69826">
        <ele>1762</ele>
      </trkpt>
      <trkpt lat="42.64165" lon="1.69835">
        <ele>1762</ele>
      </trkpt>
      <trkpt lat="42.64172" lon="1.69844">
        <ele>1762</ele>
      </trkpt>
      <trkpt lat="42.64181" lon="1.69851">
        <ele>1758</ele>
      </trkpt>
      <trkpt lat="42.64185" lon="1.69862">
        <ele>1762</ele>
      </trkpt>
      <trkpt lat="42.64191" lon="1.69873">
        <ele>1762</ele>
      </trkpt>
      <trkpt lat="42.64199" lon="1.6988">
        <ele>1762</ele>
      </trkpt>
      <trkpt lat="42.64207" lon="1.69886">
        <ele>1759</ele>
      </trkpt>
      <trkpt lat="42.64215" lon="1.69894">
        <ele>1753</ele>
      </trkpt>
      <trkpt lat="42.64225" lon="1.69895">
        <ele>1751</ele>
      </trkpt>
      <trkpt lat="42.64232" lon="1.69902">
        <ele>1745</ele>
      </trkpt>
      <trkpt lat="42.6424" lon="1.69908">
        <ele>1742</ele>
      </trkpt>
      <trkpt lat="42.6425" lon="1.6991">
        <ele>1740</ele>
      </trkpt>
      <trkpt lat="42.64258" lon="1.69917">
        <ele>1737</ele>
      </trkpt>
      <trkpt lat="42.64267" lon="1.69923">
        <ele>1737</ele>
      </trkpt>
      <trkpt lat="42.64276" lon="1.69925">
        <ele>1736</ele>
      </trkpt>
      <trkpt lat="42.64285" lon="1.69927">
        <ele>1734</ele>
      </trkpt>
      <trkpt lat="42.64292" lon="1.69937">
        <ele>1733</ele>
      </trkpt>
      <trkpt lat="42.64301" lon="1.69942">
        <ele>1733</ele>
      </trkpt>
      <trkpt lat="42.64309" lon="1.69951">
        <ele>1738</ele>
      </trkpt>
      <trkpt lat="42.64319" lon="1.69955">
        <ele>1734</ele>
      </trkpt>
      <trkpt lat="42.64327" lon="1.69962">
        <ele>1737</ele>
      </trkpt>
      <trkpt lat="42.64336" lon="1.69967">
        <ele>1735</ele>
      </trkpt>
      <trkpt lat="42.64346" lon="1.69965">
        <ele>1733</ele>
      </trkpt>
      <trkpt lat="42.64355" lon="1.6997">
        <ele>1731</ele>
      </trkpt>
      <trkpt lat="42.64364" lon="1.69972">
        <ele>1730</ele>
      </trkpt>
      <trkpt lat="42.64373" lon="1.69973">
        <ele>1729</ele>
      </trkpt>
      <trkpt lat="42.64382" lon="1.69974">
        <ele>1727</ele>
      </trkpt>
      <trkpt lat="42.6439" lon="1.69983">
        <ele>1725</ele>
      </trkpt>
      <trkpt lat="42.64397" lon="1.69993">
        <ele>1725</ele>
      </trkpt>
      <trkpt lat="42.64406" lon="1.69996">
        <ele>1722</ele>
      </trkpt>
      <trkpt lat="42.64415" lon="1.70002">
        <ele>1718</ele>
      </trkpt>
      <trkpt lat="42.64423" lon="1.7001">
        <ele>1715</ele>
      </trkpt>
      <trkpt lat="42.64427" lon="1.70021">
        <ele>1714</ele>
      </trkpt>
      <trkpt lat="42.64432" lon="1.70032">
        <ele>1713</ele>
      </trkpt>
      <trkpt lat="42.64436" lon="1.70044">
        <ele>1715</ele>
      </trkpt>
      <trkpt lat="42.64441" lon="1.70054">
        <ele>1707</ele>
      </trkpt>
      <trkpt lat="42.6444" lon="1.70067">
        <ele>1709</ele>
      </trkpt>
      <trkpt lat="42.64449" lon="1.70072">
        <ele>1711</ele>
      </trkpt>
      <trkpt lat="42.64454" lon="1.70083">
        <ele>1704</ele>
      </trkpt>
      <trkpt lat="42.64464" lon="1.70081">
        <ele>1709</ele>
      </trkpt>
      <trkpt lat="42.64474" lon="1.70081">
        <ele>1710</ele>
      </trkpt>
      <trkpt lat="42.64481" lon="1.7007">
        <ele>1711</ele>
      </trkpt>
      <trkpt lat="42.64492" lon="1.70066">
        <ele>1718</ele>
      </trkpt>
      <trkpt lat="42.64493" lon="1.70053">
        <ele>1716</ele>
      </trkpt>
      <trkpt lat="42.64498" lon="1.70042">
        <ele>1716</ele>
      </trkpt>
      <trkpt lat="42.64507" lon="1.70042">
        <ele>1717</ele>
      </trkpt>
      <trkpt lat="42.64516" lon="1.70044">
        <ele>1723</ele>
      </trkpt>
      <trkpt lat="42.64526" lon="1.70046">
        <ele>1719</ele>
      </trkpt>
      <trkpt lat="42.64536" lon="1.70046">
        <ele>1720</ele>
      </trkpt>
      <trkpt lat="42.64546" lon="1.70045">
        <ele>1722</ele>
      </trkpt>
      <trkpt lat="42.64538" lon="1.70037">
        <ele>1716</ele>
      </trkpt>
      <trkpt lat="42.64545" lon="1.70046">
        <ele>1714</ele>
      </trkpt>
      <trkpt lat="42.64552" lon="1.70054">
        <ele>1718</ele>
      </trkpt>
      <trkpt lat="42.64561" lon="1.70052">
        <ele>1719</ele>
      </trkpt>
      <trkpt lat="42.6456" lon="1.70064">
        <ele>1707</ele>
      </trkpt>
      <trkpt lat="42.64562" lon="1.70052">
        <ele>1718</ele>
      </trkpt>
      <trkpt lat="42.64573" lon="1.7005">
        <ele>1709</ele>
      </trkpt>
      <trkpt lat="42.64585" lon="1.7005">
        <ele>1707</ele>
      </trkpt>
      <trkpt lat="42.64598" lon="1.70051">
        <ele>1709</ele>
      </trkpt>
      <trkpt lat="42.64608" lon="1.70051">
        <ele>1706</ele>
      </trkpt>
      <trkpt lat="42.64616" lon="1.70055">
        <ele>1706</ele>
      </trkpt>
      <trkpt lat="42.64626" lon="1.70058">
        <ele>1711</ele>
      </trkpt>
      <trkpt lat="42.64635" lon="1.70056">
        <ele>1714</ele>
      </trkpt>
      <trkpt lat="42.64644" lon="1.70054">
        <ele>1714</ele>
      </trkpt>
      <trkpt lat="42.64653" lon="1.70059">
        <ele>1713</ele>
      </trkpt>
      <trkpt lat="42.64664" lon="1.70059">
        <ele>1716</ele>
      </trkpt>
      <trkpt lat="42.64673" lon="1.70061">
        <ele>1714</ele>
      </trkpt>
      <trkpt lat="42.64682" lon="1.70061">
        <ele>1715</ele>
      </trkpt>
      <trkpt lat="42.64689" lon="1.70052">
        <ele>1711</ele>
      </trkpt>
      <trkpt lat="42.64699" lon="1.70048">
        <ele>1714</ele>
      </trkpt>
      <trkpt lat="42.64708" lon="1.70052">
        <ele>1715</ele>
      </trkpt>
      <trkpt lat="42.64717" lon="1.70052">
        <ele>1716</ele>
      </trkpt>
      <trkpt lat="42.64726" lon="1.70055">
        <ele>1716</ele>
      </trkpt>
      <trkpt lat="42.64735" lon="1.7006">
        <ele>1715</ele>
      </trkpt>
      <trkpt lat="42.64744" lon="1.70067">
        <ele>1715</ele>
      </trkpt>
      <trkpt lat="42.64753" lon="1.70069">
        <ele>1713</ele>
      </trkpt>
      <trkpt lat="42.64765" lon="1.70066">
        <ele>1714</ele>
      </trkpt>
      <trkpt lat="42.64774" lon="1.70064">
        <ele>1714</ele>
      </trkpt>
      <trkpt lat="42.64785" lon="1.70062">
        <ele>1714</ele>
      </trkpt>
      <trkpt lat="42.64791" lon="1.70071">
        <ele>1709</ele>
      </trkpt>
      <trkpt lat="42.648" lon="1.70069">
        <ele>1711</ele>
      </trkpt>
      <trkpt lat="42.64809" lon="1.70071">
        <ele>1709</ele>
      </trkpt>
      <trkpt lat="42.64818" lon="1.70073">
        <ele>1712</ele>
      </trkpt>
      <trkpt lat="42.64825" lon="1.70082">
        <ele>1711</ele>
      </trkpt>
      <trkpt lat="42.64833" lon="1.70089">
        <ele>1708</ele>
      </trkpt>
      <trkpt lat="42.64843" lon="1.70095">
        <ele>1709</ele>
      </trkpt>
      <trkpt lat="42.64851" lon="1.70101">
        <ele>1709</ele>
      </trkpt>
      <trkpt lat="42.6486" lon="1.70104">
        <ele>1711</ele>
      </trkpt>
      <trkpt lat="42.6486" lon="1.70117">
        <ele>1710</ele>
      </trkpt>
      <trkpt lat="42.64862" lon="1.70129">
        <ele>1708</ele>
      </trkpt>
      <trkpt lat="42.64869" lon="1.70136">
        <ele>1709</ele>
      </trkpt>
      <trkpt lat="42.64873" lon="1.70148">
        <ele>1709</ele>
      </trkpt>
      <trkpt lat="42.64875" lon="1.70161">
        <ele>1710</ele>
      </trkpt>
      <trkpt lat="42.64877" lon="1.70174">
        <ele>1709</ele>
      </trkpt>
      <trkpt lat="42.64882" lon="1.70184">
        <ele>1710</ele>
      </trkpt>
      <trkpt lat="42.64886" lon="1.70195">
        <ele>1709</ele>
      </trkpt>
      <trkpt lat="42.64896" lon="1.70195">
        <ele>1709</ele>
      </trkpt>
      <trkpt lat="42.64903" lon="1.70204">
        <ele>1710</ele>
      </trkpt>
      <trkpt lat="42.64911" lon="1.70212">
        <ele>1709</ele>
      </trkpt>
      <trkpt lat="42.64917" lon="1.70221">
        <ele>1709</ele>
      </trkpt>
      <trkpt lat="42.64924" lon="1.70229">
        <ele>1709</ele>
      </trkpt>
      <trkpt lat="42.64929" lon="1.70241">
        <ele>1710</ele>
      </trkpt>
      <trkpt lat="42.64936" lon="1.70248">
        <ele>1710</ele>
      </trkpt>
      <trkpt lat="42.64945" lon="1.70251">
        <ele>1712</ele>
      </trkpt>
      <trkpt lat="42.64953" lon="1.70258">
        <ele>1714</ele>
      </trkpt>
      <trkpt lat="42.64955" lon="1.7027">
        <ele>1710</ele>
      </trkpt>
      <trkpt lat="42.64956" lon="1.70283">
        <ele>1711</ele>
      </trkpt>
      <trkpt lat="42.64954" lon="1.70296">
        <ele>1709</ele>
      </trkpt>
      <trkpt lat="42.64957" lon="1.70308">
        <ele>1702</ele>
      </trkpt>
      <trkpt lat="42.64949" lon="1.70317">
        <ele>1701</ele>
      </trkpt>
      <trkpt lat="42.64946" lon="1.70331">
        <ele>1703</ele>
      </trkpt>
      <trkpt lat="42.64942" lon="1.70342">
        <ele>1700</ele>
      </trkpt>
      <trkpt lat="42.64936" lon="1.70353">
        <ele>1697</ele>
      </trkpt>
      <trkpt lat="42.64931" lon="1.70365">
        <ele>1697</ele>
      </trkpt>
      <trkpt lat="42.64935" lon="1.70352">
        <ele>1695</ele>
      </trkpt>
      <trkpt lat="42.64934" lon="1.7034">
        <ele>1696</ele>
      </trkpt>
      <trkpt lat="42.64933" lon="1.70352">
        <ele>1691</ele>
      </trkpt>
      <trkpt lat="42.6493" lon="1.70364">
        <ele>1689</ele>
      </trkpt>
      <trkpt lat="42.64928" lon="1.70376">
        <ele>1693</ele>
      </trkpt>
      <trkpt lat="42.64927" lon="1.70389">
        <ele>1694</ele>
      </trkpt>
      <trkpt lat="42.6493" lon="1.70355">
        <ele>1695</ele>
      </trkpt>
      <trkpt lat="42.6493" lon="1.70355">
        <ele>1695</ele>
      </trkpt>
      <trkpt lat="42.6494" lon="1.70352">
        <ele>1697</ele>
      </trkpt>
      <trkpt lat="42.64945" lon="1.7034">
        <ele>1693</ele>
      </trkpt>
      <trkpt lat="42.64937" lon="1.70346">
        <ele>1696</ele>
      </trkpt>
      <trkpt lat="42.64926" lon="1.70348">
        <ele>1693</ele>
      </trkpt>
      <trkpt lat="42.6492" lon="1.70339">
        <ele>1696</ele>
      </trkpt>
      <trkpt lat="42.64912" lon="1.70332">
        <ele>1699</ele>
      </trkpt>
      <trkpt lat="42.64902" lon="1.70329">
        <ele>1696</ele>
      </trkpt>
      <trkpt lat="42.64894" lon="1.70335">
        <ele>1696</ele>
      </trkpt>
      <trkpt lat="42.64883" lon="1.70334">
        <ele>1696</ele>
      </trkpt>
      <trkpt lat="42.64873" lon="1.70333">
        <ele>1693</ele>
      </trkpt>
      <trkpt lat="42.64865" lon="1.70344">
        <ele>1686</ele>
      </trkpt>
      <trkpt lat="42.64855" lon="1.7035">
        <ele>1689</ele>
      </trkpt>
      <trkpt lat="42.64846" lon="1.70352">
        <ele>1690</ele>
      </trkpt>
      <trkpt lat="42.64839" lon="1.7036">
        <ele>1692</ele>
      </trkpt>
      <trkpt lat="42.64831" lon="1.70355">
        <ele>1692</ele>
      </trkpt>
      <trkpt lat="42.64823" lon="1.70348">
        <ele>1691</ele>
      </trkpt>
      <trkpt lat="42.64815" lon="1.70341">
        <ele>1691</ele>
      </trkpt>
      <trkpt lat="42.64809" lon="1.7033">
        <ele>1694</ele>
      </trkpt>
      <trkpt lat="42.648" lon="1.70337">
        <ele>1694</ele>
      </trkpt>
      <trkpt lat="42.64793" lon="1.70343">
        <ele>1692</ele>
      </trkpt>
      <trkpt lat="42.64784" lon="1.70348">
        <ele>1696</ele>
      </trkpt>
      <trkpt lat="42.64775" lon="1.70347">
        <ele>1700</ele>
      </trkpt>
      <trkpt lat="42.64765" lon="1.70347">
        <ele>1702</ele>
      </trkpt>
      <trkpt lat="42.64755" lon="1.70345">
        <ele>1702</ele>
      </trkpt>
      <trkpt lat="42.64746" lon="1.70342">
        <ele>1706</ele>
      </trkpt>
      <trkpt lat="42.64737" lon="1.70338">
        <ele>1706</ele>
      </trkpt>
      <trkpt lat="42.64728" lon="1.70337">
        <ele>1707</ele>
      </trkpt>
      <trkpt lat="42.64716" lon="1.70334">
        <ele>1708</ele>
      </trkpt>
      <trkpt lat="42.64706" lon="1.70331">
        <ele>1712</ele>
      </trkpt>
      <trkpt lat="42.64697" lon="1.70323">
        <ele>1709</ele>
      </trkpt>
      <trkpt lat="42.6469" lon="1.70316">
        <ele>1706</ele>
      </trkpt>
      <trkpt lat="42.64683" lon="1.70307">
        <ele>1704</ele>
      </trkpt>
      <trkpt lat="42.64673" lon="1.70297">
        <ele>1713</ele>
      </trkpt>
      <trkpt lat="42.64663" lon="1.70294">
        <ele>1711</ele>
      </trkpt>
      <trkpt lat="42.6465" lon="1.70295">
        <ele>1714</ele>
      </trkpt>
      <trkpt lat="42.6464" lon="1.70289">
        <ele>1718</ele>
      </trkpt>
      <trkpt lat="42.6463" lon="1.70289">
        <ele>1716</ele>
      </trkpt>
      <trkpt lat="42.6462" lon="1.70289">
        <ele>1715</ele>
      </trkpt>
      <trkpt lat="42.64612" lon="1.70292">
        <ele>1717</ele>
      </trkpt>
      <trkpt lat="42.64602" lon="1.70291">
        <ele>1717</ele>
      </trkpt>
      <trkpt lat="42.64593" lon="1.70289">
        <ele>1721</ele>
      </trkpt>
      <trkpt lat="42.64583" lon="1.70285">
        <ele>1725</ele>
      </trkpt>
      <trkpt lat="42.64575" lon="1.70278">
        <ele>1721</ele>
      </trkpt>
      <trkpt lat="42.64566" lon="1.70272">
        <ele>1715</ele>
      </trkpt>
      <trkpt lat="42.64557" lon="1.70275">
        <ele>1715</ele>
      </trkpt>
      <trkpt lat="42.64546" lon="1.7027">
        <ele>1716</ele>
      </trkpt>
      <trkpt lat="42.64536" lon="1.70269">
        <ele>1717</ele>
      </trkpt>
      <trkpt lat="42.64526" lon="1.70269">
        <ele>1718</ele>
      </trkpt>
      <trkpt lat="42.64517" lon="1.70267">
        <ele>1720</ele>
      </trkpt>
      <trkpt lat="42.64507" lon="1.70266">
        <ele>1716</ele>
      </trkpt>
      <trkpt lat="42.64498" lon="1.70267">
        <ele>1716</ele>
      </trkpt>
      <trkpt lat="42.64489" lon="1.70273">
        <ele>1714</ele>
      </trkpt>
      <trkpt lat="42.6448" lon="1.70274">
        <ele>1714</ele>
      </trkpt>
      <trkpt lat="42.6447" lon="1.70271">
        <ele>1715</ele>
      </trkpt>
      <trkpt lat="42.6446" lon="1.70268">
        <ele>1719</ele>
      </trkpt>
      <trkpt lat="42.6445" lon="1.70268">
        <ele>1717</ele>
      </trkpt>
      <trkpt lat="42.64441" lon="1.70272">
        <ele>1720</ele>
      </trkpt>
      <trkpt lat="42.64432" lon="1.70275">
        <ele>1719</ele>
      </trkpt>
      <trkpt lat="42.64423" lon="1.70277">
        <ele>1718</ele>
      </trkpt>
      <trkpt lat="42.64413" lon="1.70276">
        <ele>1715</ele>
      </trkpt>
      <trkpt lat="42.64404" lon="1.70271">
        <ele>1710</ele>
      </trkpt>
      <trkpt lat="42.64395" lon="1.70273">
        <ele>1712</ele>
      </trkpt>
      <trkpt lat="42.64385" lon="1.70275">
        <ele>1713</ele>
      </trkpt>
      <trkpt lat="42.64375" lon="1.70277">
        <ele>1718</ele>
      </trkpt>
      <trkpt lat="42.64366" lon="1.70278">
        <ele>1721</ele>
      </trkpt>
      <trkpt lat="42.64357" lon="1.7028">
        <ele>1723</ele>
      </trkpt>
      <trkpt lat="42.64348" lon="1.70285">
        <ele>1723</ele>
      </trkpt>
      <trkpt lat="42.64341" lon="1.70292">
        <ele>1727</ele>
      </trkpt>
      <trkpt lat="42.64332" lon="1.70298">
        <ele>1727</ele>
      </trkpt>
      <trkpt lat="42.64323" lon="1.70302">
        <ele>1725</ele>
      </trkpt>
      <trkpt lat="42.64315" lon="1.7031">
        <ele>1729</ele>
      </trkpt>
      <trkpt lat="42.64306" lon="1.70313">
        <ele>1729</ele>
      </trkpt>
      <trkpt lat="42.64296" lon="1.70316">
        <ele>1732</ele>
      </trkpt>
      <trkpt lat="42.64284" lon="1.70319">
        <ele>1735</ele>
      </trkpt>
      <trkpt lat="42.64275" lon="1.70319">
        <ele>1738</ele>
      </trkpt>
      <trkpt lat="42.64265" lon="1.7032">
        <ele>1734</ele>
      </trkpt>
      <trkpt lat="42.64255" lon="1.7032">
        <ele>1737</ele>
      </trkpt>
      <trkpt lat="42.64247" lon="1.70327">
        <ele>1743</ele>
      </trkpt>
      <trkpt lat="42.64239" lon="1.70335">
        <ele>1745</ele>
      </trkpt>
      <trkpt lat="42.64231" lon="1.7034">
        <ele>1748</ele>
      </trkpt>
      <trkpt lat="42.64223" lon="1.70346">
        <ele>1749</ele>
      </trkpt>
      <trkpt lat="42.64217" lon="1.70356">
        <ele>1753</ele>
      </trkpt>
      <trkpt lat="42.64209" lon="1.70364">
        <ele>1750</ele>
      </trkpt>
      <trkpt lat="42.64205" lon="1.70376">
        <ele>1752</ele>
      </trkpt>
      <trkpt lat="42.64199" lon="1.70385">
        <ele>1756</ele>
      </trkpt>
      <trkpt lat="42.64193" lon="1.70398">
        <ele>1758</ele>
      </trkpt>
      <trkpt lat="42.64183" lon="1.70405">
        <ele>1762</ele>
      </trkpt>
      <trkpt lat="42.6418" lon="1.70418">
        <ele>1767</ele>
      </trkpt>
      <trkpt lat="42.64182" lon="1.70432">
        <ele>1768</ele>
      </trkpt>
      <trkpt lat="42.64175" lon="1.70441">
        <ele>1771</ele>
      </trkpt>
      <trkpt lat="42.64173" lon="1.70453">
        <ele>1776</ele>
      </trkpt>
      <trkpt lat="42.64178" lon="1.70464">
        <ele>1784</ele>
      </trkpt>
      <trkpt lat="42.64173" lon="1.70475">
        <ele>1788</ele>
      </trkpt>
      <trkpt lat="42.64168" lon="1.70485">
        <ele>1790</ele>
      </trkpt>
      <trkpt lat="42.64161" lon="1.70493">
        <ele>1793</ele>
      </trkpt>
      <trkpt lat="42.64154" lon="1.70502">
        <ele>1795</ele>
      </trkpt>
      <trkpt lat="42.64148" lon="1.7051">
        <ele>1792</ele>
      </trkpt>
      <trkpt lat="42.6414" lon="1.70518">
        <ele>1795</ele>
      </trkpt>
      <trkpt lat="42.64135" lon="1.70529">
        <ele>1797</ele>
      </trkpt>
      <trkpt lat="42.64129" lon="1.70538">
        <ele>1804</ele>
      </trkpt>
      <trkpt lat="42.64124" lon="1.70549">
        <ele>1811</ele>
      </trkpt>
      <trkpt lat="42.64121" lon="1.70562">
        <ele>1815</ele>
      </trkpt>
      <trkpt lat="42.6412" lon="1.70575">
        <ele>1817</ele>
      </trkpt>
      <trkpt lat="42.64116" lon="1.70587">
        <ele>1819</ele>
      </trkpt>
      <trkpt lat="42.64113" lon="1.70599">
        <ele>1820</ele>
      </trkpt>
      <trkpt lat="42.64111" lon="1.70611">
        <ele>1822</ele>
      </trkpt>
      <trkpt lat="42.6411" lon="1.70624">
        <ele>1820</ele>
      </trkpt>
      <trkpt lat="42.64106" lon="1.70637">
        <ele>1820</ele>
      </trkpt>
      <trkpt lat="42.64101" lon="1.70647">
        <ele>1820</ele>
      </trkpt>
      <trkpt lat="42.64094" lon="1.70656">
        <ele>1822</ele>
      </trkpt>
      <trkpt lat="42.64088" lon="1.70679">
        <ele>1828</ele>
      </trkpt>
      <trkpt lat="42.64083" lon="1.70689">
        <ele>1827</ele>
      </trkpt>
      <trkpt lat="42.6408" lon="1.70701">
        <ele>1830</ele>
      </trkpt>
      <trkpt lat="42.64077" lon="1.70714">
        <ele>1833</ele>
      </trkpt>
      <trkpt lat="42.64071" lon="1.70724">
        <ele>1835</ele>
      </trkpt>
      <trkpt lat="42.64066" lon="1.70735">
        <ele>1841</ele>
      </trkpt>
      <trkpt lat="42.6407" lon="1.70747">
        <ele>1844.4</ele>
      </trkpt>
      <trkpt lat="42.64076" lon="1.70781">
        <ele>1852</ele>
      </trkpt>
      <trkpt lat="42.64079" lon="1.7078">
        <ele>1851.9</ele>
      </trkpt>
      <trkpt lat="42.64079" lon="1.7078">
        <ele>1851.9</ele>
      </trkpt>
    </trkseg>
  </trk>
</gpx>